Observation data for Sterling City on 06/15/2019      Previous  Date  Next       Current Mesonet Observations  Soil Data  Daily Summary Page  Observations in Plain Language
KSC1 150500Z 15007KT 26/15 A2991 RMK A01 T02600151  RH  051%=      5-min Rain = 0
KSC1 150501Z 16009KT 26/15 A2991 RMK A01 T02600151  RH  051%=      5-min Rain = 0
KSC1 150502Z 15008KT 26/15 A2991 RMK A01 T02600151  RH  051%=      5-min Rain = 0
KSC1 150503Z 15009KT 26/15 A299 RMK A01 T02600152  RH  051%=      5-min Rain = 0
KSC1 150504Z 15008KT 26/15 A299 RMK A01 T02590152  RH  051%=      5-min Rain = 0
KSC1 150505Z 15008KT 26/15 A299 RMK A01 T02590152  RH  051%=      5-min Rain = 0
KSC1 150506Z 15009KT 26/15 A299 RMK A01 T02590152  RH  051%=      5-min Rain = 0
KSC1 150507Z 16009KT 26/15 A299 RMK A01 T02590152  RH  051%=      5-min Rain = 0
KSC1 150508Z 15009KT 26/15 A299 RMK A01 T02590152  RH  052%=      5-min Rain = 0
KSC1 150509Z 15010KT 26/15 A299 RMK A01 T02600153  RH  052%=      5-min Rain = 0
KSC1 150510Z 15010KT 26/15 A299 RMK A01 T02600152  RH  052%=      5-min Rain = 0
KSC1 150511Z 14009G14KT 26/15 A299 RMK A01 T02600153  RH  052%=      5-min Rain = 0
KSC1 150512Z 15009KT 26/15 A299 RMK A01 T02600153  RH  052%=      5-min Rain = 0
KSC1 150513Z 14010KT 26/15 A299 RMK A01 T02600153  RH  052%=      5-min Rain = 0
KSC1 150514Z 15010KT 26/15 A299 RMK A01 T02600153  RH  052%=      5-min Rain = 0
KSC1 150515Z 15010KT 26/15 A299 RMK A01 T02600154  RH  052%=      5-min Rain = 0
KSC1 150516Z 15010KT 26/15 A299 RMK A01 T02600154  RH  052%=      5-min Rain = 0
KSC1 150517Z 14009G16KT 26/15 A299 RMK A01 T02600154  RH  052%=      5-min Rain = 0
KSC1 150518Z 15009KT 26/15 A299 RMK A01 T02600154  RH  052%=      5-min Rain = 0
KSC1 150519Z 15008G13KT 26/16 A299 RMK A01 T02600155  RH  052%=      5-min Rain = 0
KSC1 150520Z 14011KT 26/16 A299 RMK A01 T02600155  RH  052%=      5-min Rain = 0
KSC1 150521Z 14012KT 26/16 A299 RMK A01 T02610155  RH  052%=      5-min Rain = 0
KSC1 150522Z 14010KT 26/16 A299 RMK A01 T02610156  RH  052%=      5-min Rain = 0
KSC1 150523Z 15010KT 26/16 A299 RMK A01 T02610156  RH  052%=      5-min Rain = 0
KSC1 150524Z 15011KT 26/16 A299 RMK A01 T02610156  RH  052%=      5-min Rain = 0
KSC1 150525Z 14014KT 26/16 A299 RMK A01 T02610156  RH  052%=      5-min Rain = 0
KSC1 150526Z 14009KT 26/16 A299 RMK A01 T02620156  RH  052%=      5-min Rain = 0
KSC1 150527Z 14011KT 26/16 A2989 RMK A01 T02620156  RH  052%=      5-min Rain = 0
KSC1 150528Z 15010KT 26/16 A2989 RMK A01 T02620157  RH  052%=      5-min Rain = 0
KSC1 150529Z 14007KT 26/16 A299 RMK A01 T02620157  RH  052%=      5-min Rain = 0
KSC1 150530Z 15008G13KT 26/16 A299 RMK A01 T02620157  RH  052%=      5-min Rain = 0
KSC1 150531Z 14010KT 26/16 A299 RMK A01 T02610157  RH  053%=      5-min Rain = 0
KSC1 150532Z 15010KT 26/16 A299 RMK A01 T02610157  RH  053%=      5-min Rain = 0
KSC1 150533Z 14008G14KT 26/16 A299 RMK A01 T02620158  RH  053%=      5-min Rain = 0
KSC1 150534Z 15012G17KT 26/16 A299 RMK A01 T02620158  RH  053%=      5-min Rain = 0
KSC1 150535Z 15010KT 26/16 A299 RMK A01 T02620158  RH  053%=      5-min Rain = 0
KSC1 150536Z 15011KT 26/16 A299 RMK A01 T02630158  RH  053%=      5-min Rain = 0
KSC1 150537Z 15008KT 26/16 A299 RMK A01 T02630158  RH  053%=      5-min Rain = 0
KSC1 150538Z 15014KT 26/16 A299 RMK A01 T02630159  RH  053%=      5-min Rain = 0
KSC1 150539Z 15011KT 26/16 A299 RMK A01 T02630159  RH  053%=      5-min Rain = 0
KSC1 150540Z 15011KT 26/16 A299 RMK A01 T02630159  RH  053%=      5-min Rain = 0
KSC1 150541Z 15009KT 26/16 A299 RMK A01 T02630159  RH  053%=      5-min Rain = 0
KSC1 150542Z 15007KT 26/16 A299 RMK A01 T02630159  RH  053%=      5-min Rain = 0
KSC1 150543Z 14009KT 26/16 A299 RMK A01 T02630159  RH  053%=      5-min Rain = 0
KSC1 150544Z 15009KT 26/16 A299 RMK A01 T02630160  RH  053%=      5-min Rain = 0
KSC1 150545Z 15008KT 26/16 A299 RMK A01 T02620159  RH  053%=      5-min Rain = 0
KSC1 150546Z 14007KT 26/16 A299 RMK A01 T02620159  RH  053%=      5-min Rain = 0
KSC1 150547Z 15010KT 26/16 A299 RMK A01 T02620159  RH  053%=      5-min Rain = 0
KSC1 150548Z 15008KT 26/16 A299 RMK A01 T02620159  RH  053%=      5-min Rain = 0
KSC1 150549Z 15009KT 26/16 A299 RMK A01 T02620159  RH  053%=      5-min Rain = 0
KSC1 150550Z 15009KT 26/16 A299 RMK A01 T02620159  RH  053%=      5-min Rain = 0
KSC1 150551Z 15010KT 26/16 A299 RMK A01 T02620159  RH  053%=      5-min Rain = 0
KSC1 150552Z 15010KT 26/16 A299 RMK A01 T02620159  RH  053%=      5-min Rain = 0
KSC1 150553Z 15008KT 26/16 A299 RMK A01 T02630159  RH  053%=      5-min Rain = 0
KSC1 150554Z 14009KT 26/16 A299 RMK A01 T02630159  RH  053%=      5-min Rain = 0
KSC1 150555Z 14009KT 26/16 A299 RMK A01 T02630160  RH  053%=      5-min Rain = 0
KSC1 150556Z 15008KT 26/16 A299 RMK A01 T02630159  RH  053%=      5-min Rain = 0
KSC1 150557Z 15008KT 26/16 A299 RMK A01 T02630160  RH  053%=      5-min Rain = 0
KSC1 150558Z 15011G17KT 26/16 A299 RMK A01 T02630160  RH  053%=      5-min Rain = 0
KSC1 150559Z 14008KT 26/16 A299 RMK A01 T02630159  RH  053%=      5-min Rain = 0
KSC1 150600Z 15009KT 26/16 A299 RMK A01 T02630160  RH  053%=      5-min Rain = 0
KSC1 150601Z 15008KT 26/16 A299 RMK A01 T02630159  RH  053%=      5-min Rain = 0
KSC1 150602Z 15008KT 26/16 A299 RMK A01 T02630159  RH  053%=      5-min Rain = 0
KSC1 150603Z 15007KT 26/16 A299 RMK A01 T02630160  RH  053%=      5-min Rain = 0
KSC1 150604Z 14008KT 26/16 A299 RMK A01 T02630159  RH  053%=      5-min Rain = 0
KSC1 150605Z 15008KT 26/16 A299 RMK A01 T02630160  RH  053%=      5-min Rain = 0
KSC1 150606Z 15007KT 26/16 A299 RMK A01 T02630160  RH  053%=      5-min Rain = 0
KSC1 150607Z 15008KT 26/16 A299 RMK A01 T02630160  RH  053%=      5-min Rain = 0
KSC1 150608Z 15006KT 26/16 A299 RMK A01 T02630160  RH  053%=      5-min Rain = 0
KSC1 150609Z 14006KT 26/16 A299 RMK A01 T02630159  RH  053%=      5-min Rain = 0
KSC1 150610Z 15006KT 26/16 A299 RMK A01 T02620160  RH  053%=      5-min Rain = 0
KSC1 150611Z 15009KT 26/16 A299 RMK A01 T02620159  RH  053%=      5-min Rain = 0
KSC1 150612Z 15008KT 26/16 A299 RMK A01 T02620160  RH  053%=      5-min Rain = 0
KSC1 150613Z 15009G14KT 26/16 A299 RMK A01 T02620159  RH  053%=      5-min Rain = 0
KSC1 150614Z 15007KT 26/16 A299 RMK A01 T02620159  RH  053%=      5-min Rain = 0
KSC1 150615Z 15008G13KT 26/16 A299 RMK A01 T02620159  RH  053%=      5-min Rain = 0
KSC1 150616Z 15010KT 26/16 A299 RMK A01 T02620159  RH  053%=      5-min Rain = 0
KSC1 150617Z 15008KT 26/16 A299 RMK A01 T02630159  RH  053%=      5-min Rain = 0
KSC1 150618Z 15007KT 26/16 A299 RMK A01 T02630160  RH  053%=      5-min Rain = 0
KSC1 150619Z 15008KT 26/16 A299 RMK A01 T02630160  RH  053%=      5-min Rain = 0
KSC1 150620Z 14008KT 26/16 A299 RMK A01 T02630160  RH  053%=      5-min Rain = 0
KSC1 150621Z 14008KT 26/16 A2989 RMK A01 T02630160  RH  053%=      5-min Rain = 0
KSC1 150622Z 15010KT 26/16 A2989 RMK A01 T02620160  RH  053%=      5-min Rain = 0
KSC1 150623Z 15009KT 26/16 A2989 RMK A01 T02620160  RH  053%=      5-min Rain = 0
KSC1 150624Z 15010KT 26/16 A2989 RMK A01 T02620160  RH  053%=      5-min Rain = 0
KSC1 150625Z 15010KT 26/16 A2989 RMK A01 T02620160  RH  053%=      5-min Rain = 0
KSC1 150626Z 15009KT 26/16 A2989 RMK A01 T02620160  RH  053%=      5-min Rain = 0
KSC1 150627Z 15009G14KT 26/16 A2989 RMK A01 T02620160  RH  053%=      5-min Rain = 0
KSC1 150628Z 15008G13KT 26/16 A2989 RMK A01 T02620160  RH  053%=      5-min Rain = 0
KSC1 150629Z 14011KT 26/16 A2989 RMK A01 T02620159  RH  053%=      5-min Rain = 0
KSC1 150630Z 14010G15KT 26/16 A2989 RMK A01 T02620159  RH  053%=      5-min Rain = 0
KSC1 150631Z 15008KT 26/16 A2989 RMK A01 T02620159  RH  053%=      5-min Rain = 0
KSC1 150632Z 15009KT 26/16 A2989 RMK A01 T02630160  RH  053%=      5-min Rain = 0
KSC1 150633Z 15009KT 26/16 A2989 RMK A01 T02630160  RH  053%=      5-min Rain = 0
KSC1 150634Z 15011KT 26/16 A2989 RMK A01 T02620159  RH  053%=      5-min Rain = 0
KSC1 150635Z 15011KT 26/16 A2989 RMK A01 T02630159  RH  053%=      5-min Rain = 0
KSC1 150636Z 16007G12KT 26/16 A2989 RMK A01 T02630159  RH  053%=      5-min Rain = 0
KSC1 150637Z 16011KT 26/16 A2989 RMK A01 T02630159  RH  053%=      5-min Rain = 0
KSC1 150638Z 15009G14KT 26/16 A2989 RMK A01 T02630160  RH  053%=      5-min Rain = 0
KSC1 150639Z 15012KT 26/16 A2989 RMK A01 T02630159  RH  053%=      5-min Rain = 0
KSC1 150640Z 15008KT 26/16 A2989 RMK A01 T02640160  RH  053%=      5-min Rain = 0
KSC1 150641Z 16009KT 26/16 A2989 RMK A01 T02630160  RH  053%=      5-min Rain = 0
KSC1 150642Z 15008KT 26/16 A2989 RMK A01 T02640160  RH  053%=      5-min Rain = 0
KSC1 150643Z 15010KT 26/16 A2989 RMK A01 T02630160  RH  053%=      5-min Rain = 0
KSC1 150644Z 15008KT 26/16 A2989 RMK A01 T02630160  RH  053%=      5-min Rain = 0
KSC1 150645Z 15010KT 26/16 A2989 RMK A01 T02630160  RH  053%=      5-min Rain = 0
KSC1 150646Z 15010KT 26/16 A2989 RMK A01 T02630160  RH  053%=      5-min Rain = 0
KSC1 150647Z 15010KT 26/16 A2989 RMK A01 T02620159  RH  053%=      5-min Rain = 0
KSC1 150648Z 14009KT 26/16 A2989 RMK A01 T02630160  RH  053%=      5-min Rain = 0
KSC1 150649Z 14010KT 26/16 A2989 RMK A01 T02630160  RH  053%=      5-min Rain = 0
KSC1 150650Z 15010KT 26/16 A2989 RMK A01 T02620160  RH  053%=      5-min Rain = 0
KSC1 150651Z 15011G16KT 26/16 A2989 RMK A01 T02630160  RH  053%=      5-min Rain = 0
KSC1 150652Z 15010KT 26/16 A2989 RMK A01 T02630160  RH  053%=      5-min Rain = 0
KSC1 150653Z 14010KT 26/16 A2989 RMK A01 T02630160  RH  053%=      5-min Rain = 0
KSC1 150654Z 14008KT 26/16 A2989 RMK A01 T02620160  RH  053%=      5-min Rain = 0
KSC1 150655Z 14010KT 26/16 A2989 RMK A01 T02620160  RH  053%=      5-min Rain = 0
KSC1 150656Z 15010KT 26/16 A2989 RMK A01 T02620160  RH  053%=      5-min Rain = 0
KSC1 150657Z 15009KT 26/16 A2989 RMK A01 T02620160  RH  053%=      5-min Rain = 0
KSC1 150658Z 15010KT 26/16 A2989 RMK A01 T02620160  RH  053%=      5-min Rain = 0
KSC1 150659Z 15012KT 26/16 A2988 RMK A01 T02620160  RH  054%=      5-min Rain = 0
KSC1 150700Z 15011KT 26/16 A2989 RMK A01 T02620160  RH  054%=      5-min Rain = 0
KSC1 150701Z 15012KT 26/16 A2989 RMK A01 T02620160  RH  053%=      5-min Rain = 0
KSC1 150702Z 14012KT 26/16 A2988 RMK A01 T02620159  RH  053%=      5-min Rain = 0
KSC1 150703Z 15012KT 26/16 A2988 RMK A01 T02620160  RH  053%=      5-min Rain = 0
KSC1 150704Z 16011KT 26/16 A2988 RMK A01 T02620160  RH  053%=      5-min Rain = 0
KSC1 150705Z 15009KT 26/16 A2988 RMK A01 T02620160  RH  053%=      5-min Rain = 0
KSC1 150706Z 15013KT 26/16 A2988 RMK A01 T02610160  RH  054%=      5-min Rain = 0
KSC1 150707Z 15011G16KT 26/16 A2988 RMK A01 T02610160  RH  053%=      5-min Rain = 0
KSC1 150708Z 15011KT 26/16 A2988 RMK A01 T02610159  RH  053%=      5-min Rain = 0
KSC1 150709Z 15012G19KT 26/16 A2988 RMK A01 T02610160  RH  053%=      5-min Rain = 0
KSC1 150710Z 16018KT 26/16 A2987 RMK A01 T02610159  RH  053%=      5-min Rain = 0
KSC1 150711Z 15012KT 26/16 A2988 RMK A01 T02620159  RH  053%=      5-min Rain = 0
KSC1 150712Z 15013G18KT 26/16 A2988 RMK A01 T02620159  RH  053%=      5-min Rain = 0
KSC1 150713Z 16013G19KT 26/16 A2988 RMK A01 T02620159  RH  053%=      5-min Rain = 0
KSC1 150714Z 16012G18KT 26/16 A2988 RMK A01 T02620159  RH  053%=      5-min Rain = 0
KSC1 150715Z 16009KT 26/16 A2987 RMK A01 T02620159  RH  053%=      5-min Rain = 0
KSC1 150716Z 16009G15KT 26/16 A2987 RMK A01 T02610159  RH  053%=      5-min Rain = 0
KSC1 150717Z 15011KT 26/16 A2987 RMK A01 T02610159  RH  054%=      5-min Rain = 0
KSC1 150718Z 16009G17KT 26/16 A2987 RMK A01 T02600159  RH  054%=      5-min Rain = 0
KSC1 150719Z 17017G24KT 26/16 A2987 RMK A01 T02600159  RH  054%=      5-min Rain = 0
KSC1 150720Z 16012KT 26/16 A2987 RMK A01 T02610159  RH  053%=      5-min Rain = 0
KSC1 150721Z 16013G18KT 26/16 A2987 RMK A01 T02610159  RH  053%=      5-min Rain = 0
KSC1 150722Z 15012KT 26/16 A2987 RMK A01 T02610159  RH  053%=      5-min Rain = 0
KSC1 150723Z 17013KT 26/16 A2987 RMK A01 T02610159  RH  053%=      5-min Rain = 0
KSC1 150724Z 15012KT 26/16 A2987 RMK A01 T02610159  RH  053%=      5-min Rain = 0
KSC1 150725Z 16013KT 26/16 A2987 RMK A01 T02610159  RH  053%=      5-min Rain = 0
KSC1 150726Z 16009KT 26/16 A2987 RMK A01 T02610159  RH  053%=      5-min Rain = 0
KSC1 150727Z 16009G14KT 26/16 A2987 RMK A01 T02610159  RH  053%=      5-min Rain = 0
KSC1 150728Z 16011KT 26/16 A2987 RMK A01 T02600159  RH  054%=      5-min Rain = 0
KSC1 150729Z 16012G17KT 26/16 A2987 RMK A01 T02600159  RH  054%=      5-min Rain = 0
KSC1 150730Z 16013KT 26/16 A2987 RMK A01 T02600159  RH  054%=      5-min Rain = 0
KSC1 150731Z 16010KT 26/16 A2987 RMK A01 T02600159  RH  054%=      5-min Rain = 0
KSC1 150732Z 16009KT 26/16 A2987 RMK A01 T02600159  RH  054%=      5-min Rain = 0
KSC1 150733Z 15013G18KT 26/16 A2987 RMK A01 T02590159  RH  054%=      5-min Rain = 0
KSC1 150734Z 15013G18KT 26/16 A2987 RMK A01 T02590159  RH  054%=      5-min Rain = 0
KSC1 150735Z 16011KT 26/16 A2987 RMK A01 T02590159  RH  054%=      5-min Rain = 0
KSC1 150736Z 17013G20KT 26/16 A2987 RMK A01 T02590159  RH  054%=      5-min Rain = 0
KSC1 150737Z 17014KT 26/16 A2987 RMK A01 T02590159  RH  054%=      5-min Rain = 0
KSC1 150738Z 16015KT 26/16 A2987 RMK A01 T02600159  RH  054%=      5-min Rain = 0
KSC1 150739Z 16015KT 26/16 A2987 RMK A01 T02600159  RH  054%=      5-min Rain = 0
KSC1 150740Z 17012KT 26/16 A2987 RMK A01 T02600159  RH  054%=      5-min Rain = 0
KSC1 150741Z 16015G20KT 26/16 A2987 RMK A01 T02600159  RH  054%=      5-min Rain = 0
KSC1 150742Z 16015KT 26/16 A2987 RMK A01 T02590159  RH  054%=      5-min Rain = 0
KSC1 150743Z 16011KT 26/16 A2987 RMK A01 T02590159  RH  054%=      5-min Rain = 0
KSC1 150744Z 16011G16KT 26/16 A2987 RMK A01 T02590159  RH  054%=      5-min Rain = 0
KSC1 150745Z 16012KT 26/16 A2987 RMK A01 T02590159  RH  054%=      5-min Rain = 0
KSC1 150746Z 16013KT 26/16 A2987 RMK A01 T02580159  RH  054%=      5-min Rain = 0
KSC1 150747Z 16014G21KT 26/16 A2987 RMK A01 T02590159  RH  054%=      5-min Rain = 0
KSC1 150748Z 17016KT 26/16 A2987 RMK A01 T02590159  RH  054%=      5-min Rain = 0
KSC1 150749Z 16012KT 26/16 A2987 RMK A01 T02590159  RH  054%=      5-min Rain = 0
KSC1 150750Z 17013G18KT 26/16 A2987 RMK A01 T02590159  RH  054%=      5-min Rain = 0
KSC1 150751Z 17010G15KT 26/16 A2987 RMK A01 T02590159  RH  054%=      5-min Rain = 0
KSC1 150752Z 17011KT 26/16 A2987 RMK A01 T02580159  RH  054%=      5-min Rain = 0
KSC1 150753Z 18012G17KT 26/16 A2987 RMK A01 T02580159  RH  054%=      5-min Rain = 0
KSC1 150754Z 17012G17KT 26/16 A2987 RMK A01 T02570158  RH  054%=      5-min Rain = 0
KSC1 150755Z 17011KT 26/16 A2987 RMK A01 T02580159  RH  054%=      5-min Rain = 0
KSC1 150756Z 17014G19KT 26/16 A2987 RMK A01 T02570158  RH  054%=      5-min Rain = 0
KSC1 150757Z 17013G19KT 26/16 A2986 RMK A01 T02580159  RH  054%=      5-min Rain = 0
KSC1 150758Z 17012KT 26/16 A2987 RMK A01 T02570159  RH  054%=      5-min Rain = 0
KSC1 150759Z 18014KT 26/16 A2986 RMK A01 T02570159  RH  055%=      5-min Rain = 0
KSC1 150800Z 17011KT 26/16 A2986 RMK A01 T02570159  RH  055%=      5-min Rain = 0
KSC1 150801Z 16014G19KT 26/16 A2986 RMK A01 T02570159  RH  055%=      5-min Rain = 0
KSC1 150802Z 16010KT 26/16 A2986 RMK A01 T02570159  RH  055%=      5-min Rain = 0
KSC1 150803Z 16011KT 26/16 A2986 RMK A01 T02570159  RH  055%=      5-min Rain = 0
KSC1 150804Z 17012KT 26/16 A2986 RMK A01 T02560159  RH  055%=      5-min Rain = 0
KSC1 150805Z 17012G17KT 26/16 A2986 RMK A01 T02560159  RH  055%=      5-min Rain = 0
KSC1 150806Z 16010KT 26/16 A2986 RMK A01 T02550159  RH  055%=      5-min Rain = 0
KSC1 150807Z 16010G20KT 26/16 A2986 RMK A01 T02550160  RH  056%=      5-min Rain = 0
KSC1 150808Z 16015KT 25/16 A2986 RMK A01 T02540159  RH  056%=      5-min Rain = 0
KSC1 150809Z 17011KT 25/16 A2986 RMK A01 T02540159  RH  056%=      5-min Rain = 0
KSC1 150810Z 17013KT 25/16 A2986 RMK A01 T02540160  RH  056%=      5-min Rain = 0
KSC1 150811Z 17012KT 25/16 A2986 RMK A01 T02540159  RH  056%=      5-min Rain = 0
KSC1 150812Z 16011KT 25/16 A2986 RMK A01 T02540160  RH  056%=      5-min Rain = 0
KSC1 150813Z 17011G17KT 25/16 A2986 RMK A01 T02540160  RH  056%=      5-min Rain = 0
KSC1 150814Z 17012KT 25/16 A2986 RMK A01 T02530160  RH  056%=      5-min Rain = 0
KSC1 150815Z 16011KT 25/16 A2985 RMK A01 T02530159  RH  056%=      5-min Rain = 0
KSC1 150816Z 16009G14KT 25/16 A2985 RMK A01 T02530160  RH  056%=      5-min Rain = 0
KSC1 150817Z 16012KT 25/16 A2985 RMK A01 T02520160  RH  056%=      5-min Rain = 0
KSC1 150818Z 17008KT 25/16 A2985 RMK A01 T02520160  RH  057%=      5-min Rain = 0
KSC1 150819Z 17010KT 25/16 A2985 RMK A01 T02510159  RH  057%=      5-min Rain = 0
KSC1 150820Z 16011G17KT 25/16 A2985 RMK A01 T02500159  RH  057%=      5-min Rain = 0
KSC1 150821Z 16011KT 25/16 A2985 RMK A01 T02500159  RH  057%=      5-min Rain = 0
KSC1 150822Z 16010KT 25/16 A2985 RMK A01 T02500159  RH  057%=      5-min Rain = 0
KSC1 150823Z 17012G19KT 25/16 A2985 RMK A01 T02510160  RH  057%=      5-min Rain = 0
KSC1 150824Z 16010KT 25/16 A2985 RMK A01 T02500160  RH  057%=      5-min Rain = 0
KSC1 150825Z 17011KT 25/16 A2985 RMK A01 T02500160  RH  057%=      5-min Rain = 0
KSC1 150826Z 16009KT 25/16 A2985 RMK A01 T02500160  RH  057%=      5-min Rain = 0
KSC1 150827Z 16012G18KT 25/16 A2985 RMK A01 T02500160  RH  057%=      5-min Rain = 0
KSC1 150828Z 16011KT 25/16 A2985 RMK A01 T02500160  RH  057%=      5-min Rain = 0
KSC1 150829Z 16010KT 25/16 A2985 RMK A01 T02500160  RH  057%=      5-min Rain = 0
KSC1 150830Z 16010KT 25/16 A2985 RMK A01 T02490160  RH  057%=      5-min Rain = 0
KSC1 150831Z 16013KT 25/16 A2985 RMK A01 T02490160  RH  058%=      5-min Rain = 0
KSC1 150832Z 16011G17KT 25/16 A2985 RMK A01 T02490160  RH  058%=      5-min Rain = 0
KSC1 150833Z 16010KT 25/16 A2985 RMK A01 T02490160  RH  058%=      5-min Rain = 0
KSC1 150834Z 15009KT 25/16 A2985 RMK A01 T02480160  RH  058%=      5-min Rain = 0
KSC1 150835Z 16010KT 25/16 A2985 RMK A01 T02480160  RH  058%=      5-min Rain = 0
KSC1 150836Z 16009KT 25/16 A2985 RMK A01 T02470160  RH  058%=      5-min Rain = 0
KSC1 150837Z 15012KT 25/16 A2985 RMK A01 T02470160  RH  058%=      5-min Rain = 0
KSC1 150838Z 15007KT 25/16 A2985 RMK A01 T02470160  RH  059%=      5-min Rain = 0
KSC1 150839Z 15008KT 25/16 A2985 RMK A01 T02460160  RH  059%=      5-min Rain = 0
KSC1 150840Z 15008KT 25/16 A2985 RMK A01 T02460160  RH  059%=      5-min Rain = 0
KSC1 150841Z 15009KT 25/16 A2985 RMK A01 T02460160  RH  059%=      5-min Rain = 0
KSC1 150842Z 15008KT 25/16 A2985 RMK A01 T02450160  RH  059%=      5-min Rain = 0
KSC1 150843Z 15009KT 25/16 A2985 RMK A01 T02450160  RH  059%=      5-min Rain = 0
KSC1 150844Z 15009KT 25/16 A2985 RMK A01 T02450160  RH  059%=      5-min Rain = 0
KSC1 150845Z 14007KT 25/16 A2984 RMK A01 T02450160  RH  059%=      5-min Rain = 0
KSC1 150846Z 14010KT 25/16 A2984 RMK A01 T02450160  RH  059%=      5-min Rain = 0
KSC1 150847Z 14007KT 24/16 A2984 RMK A01 T02440160  RH  059%=      5-min Rain = 0
KSC1 150848Z 14006KT 24/16 A2984 RMK A01 T02440160  RH  059%=      5-min Rain = 0
KSC1 150849Z 15009KT 24/16 A2984 RMK A01 T02430160  RH  060%=      5-min Rain = 0
KSC1 150850Z 15008KT 24/16 A2984 RMK A01 T02430160  RH  060%=      5-min Rain = 0
KSC1 150851Z 15006KT 24/16 A2984 RMK A01 T02430160  RH  060%=      5-min Rain = 0
KSC1 150852Z 14008KT 24/16 A2984 RMK A01 T02420160  RH  060%=      5-min Rain = 0
KSC1 150853Z 15006KT 24/16 A2984 RMK A01 T02420160  RH  060%=      5-min Rain = 0
KSC1 150854Z 14007KT 24/16 A2984 RMK A01 T02420161  RH  060%=      5-min Rain = 0
KSC1 150855Z 15006KT 24/16 A2984 RMK A01 T02410160  RH  061%=      5-min Rain = 0
KSC1 150856Z 14006KT 24/16 A2984 RMK A01 T02410160  RH  061%=      5-min Rain = 0
KSC1 150857Z 15008G13KT 24/16 A2984 RMK A01 T02400160  RH  061%=      5-min Rain = 0
KSC1 150858Z 15007KT 24/16 A2984 RMK A01 T02400160  RH  061%=      5-min Rain = 0
KSC1 150859Z 14007KT 24/16 A2984 RMK A01 T02400160  RH  061%=      5-min Rain = 0
KSC1 150900Z 15009KT 24/16 A2984 RMK A01 T02400160  RH  061%=      5-min Rain = 0
KSC1 150901Z 15006KT 24/16 A2984 RMK A01 T02390160  RH  061%=      5-min Rain = 0
KSC1 150902Z 15006KT 24/16 A2985 RMK A01 T02400160  RH  061%=      5-min Rain = 0
KSC1 150903Z 15006KT 24/16 A2985 RMK A01 T02400160  RH  061%=      5-min Rain = 0
KSC1 150904Z 16004KT 24/16 A2985 RMK A01 T02390160  RH  061%=      5-min Rain = 0
KSC1 150905Z 16006KT 24/16 A2985 RMK A01 T02390160  RH  061%=      5-min Rain = 0
KSC1 150906Z 15006KT 24/16 A2985 RMK A01 T02380160  RH  062%=      5-min Rain = 0
KSC1 150907Z 15007KT 24/16 A2985 RMK A01 T02380160  RH  062%=      5-min Rain = 0
KSC1 150908Z 15006KT 24/16 A2985 RMK A01 T02380160  RH  062%=      5-min Rain = 0
KSC1 150909Z 15006KT 24/16 A2984 RMK A01 T02380160  RH  062%=      5-min Rain = 0
KSC1 150910Z 15007KT 24/16 A2984 RMK A01 T02380160  RH  062%=      5-min Rain = 0
KSC1 150911Z 14006KT 24/16 A2984 RMK A01 T02370160  RH  062%=      5-min Rain = 0
KSC1 150912Z 15006KT 24/16 A2984 RMK A01 T02370160  RH  062%=      5-min Rain = 0
KSC1 150913Z 14007KT 24/16 A2984 RMK A01 T02360160  RH  062%=      5-min Rain = 0
KSC1 150914Z 15008KT 24/16 A2984 RMK A01 T02360160  RH  063%=      5-min Rain = 0
KSC1 150915Z 15009KT 24/16 A2984 RMK A01 T02350160  RH  063%=      5-min Rain = 0
KSC1 150916Z 15009KT 24/16 A2984 RMK A01 T02360160  RH  063%=      5-min Rain = 0
KSC1 150917Z 15007KT 24/16 A2984 RMK A01 T02360160  RH  062%=      5-min Rain = 0
KSC1 150918Z 15007KT 24/16 A2984 RMK A01 T02370160  RH  062%=      5-min Rain = 0
KSC1 150919Z 15006KT 24/16 A2984 RMK A01 T02370160  RH  062%=      5-min Rain = 0
KSC1 150920Z 15006KT 24/16 A2984 RMK A01 T02360160  RH  062%=      5-min Rain = 0
KSC1 150921Z 15005KT 24/16 A2984 RMK A01 T02360161  RH  062%=      5-min Rain = 0
KSC1 150922Z 15007KT 24/16 A2984 RMK A01 T02360160  RH  063%=      5-min Rain = 0
KSC1 150923Z 16006KT 24/16 A2984 RMK A01 T02360160  RH  063%=      5-min Rain = 0
KSC1 150924Z 16006KT 24/16 A2985 RMK A01 T02360160  RH  062%=      5-min Rain = 0
KSC1 150925Z 15006KT 24/16 A2984 RMK A01 T02360160  RH  062%=      5-min Rain = 0
KSC1 150926Z 15005KT 24/16 A2984 RMK A01 T02360160  RH  063%=      5-min Rain = 0
KSC1 150927Z 15004KT 24/16 A2984 RMK A01 T02360160  RH  063%=      5-min Rain = 0
KSC1 150928Z 15005KT 24/16 A2985 RMK A01 T02360160  RH  063%=      5-min Rain = 0
KSC1 150929Z 15005KT 24/16 A2985 RMK A01 T02350160  RH  063%=      5-min Rain = 0
KSC1 150930Z 15004KT 24/16 A2985 RMK A01 T02350161  RH  063%=      5-min Rain = 0
KSC1 150931Z 16006KT 23/16 A2985 RMK A01 T02340160  RH  063%=      5-min Rain = 0
KSC1 150932Z 17004KT 23/16 A2985 RMK A01 T02340160  RH  063%=      5-min Rain = 0
KSC1 150933Z 17006KT 23/16 A2985 RMK A01 T02330160  RH  063%=      5-min Rain = 0
KSC1 150934Z 17004KT 23/16 A2985 RMK A01 T02340160  RH  063%=      5-min Rain = 0
KSC1 150935Z 15005KT 23/16 A2985 RMK A01 T02340160  RH  063%=      5-min Rain = 0
KSC1 150936Z 15006KT 23/16 A2985 RMK A01 T02330160  RH  064%=      5-min Rain = 0
KSC1 150937Z 16005KT 23/16 A2985 RMK A01 T02330160  RH  064%=      5-min Rain = 0
KSC1 150938Z 15004KT 23/16 A2985 RMK A01 T02320160  RH  064%=      5-min Rain = 0
KSC1 150939Z 15006KT 23/16 A2985 RMK A01 T02330160  RH  064%=      5-min Rain = 0
KSC1 150940Z 15006KT 23/16 A2985 RMK A01 T02320160  RH  064%=      5-min Rain = 0
KSC1 150941Z 15006KT 23/16 A2985 RMK A01 T02320160  RH  064%=      5-min Rain = 0
KSC1 150942Z 16006KT 23/16 A2985 RMK A01 T02320160  RH  064%=      5-min Rain = 0
KSC1 150943Z 16005KT 23/16 A2985 RMK A01 T02320160  RH  064%=      5-min Rain = 0
KSC1 150944Z 16005KT 23/16 A2985 RMK A01 T02310160  RH  064%=      5-min Rain = 0
KSC1 150945Z 16007KT 23/16 A2985 RMK A01 T02310160  RH  064%=      5-min Rain = 0
KSC1 150946Z 15007KT 23/16 A2985 RMK A01 T02310160  RH  064%=      5-min Rain = 0
KSC1 150947Z 15006KT 23/16 A2985 RMK A01 T02310160  RH  064%=      5-min Rain = 0
KSC1 150948Z 15007KT 23/16 A2985 RMK A01 T02310160  RH  064%=      5-min Rain = 0
KSC1 150949Z 15006KT 23/16 A2985 RMK A01 T02310159  RH  064%=      5-min Rain = 0
KSC1 150950Z 16007KT 23/16 A2985 RMK A01 T02310159  RH  064%=      5-min Rain = 0
KSC1 150951Z 15007KT 23/16 A2985 RMK A01 T02310160  RH  064%=      5-min Rain = 0
KSC1 150952Z 15006KT 23/16 A2985 RMK A01 T02310160  RH  064%=      5-min Rain = 0
KSC1 150953Z 15005KT 23/16 A2985 RMK A01 T02310160  RH  064%=      5-min Rain = 0
KSC1 150954Z 16006KT 23/16 A2985 RMK A01 T02300159  RH  064%=      5-min Rain = 0
KSC1 150955Z 16005KT 23/16 A2985 RMK A01 T02300159  RH  064%=      5-min Rain = 0
KSC1 150956Z 15005KT 23/16 A2985 RMK A01 T02290159  RH  065%=      5-min Rain = 0
KSC1 150957Z 14004KT 23/16 A2985 RMK A01 T02290159  RH  065%=      5-min Rain = 0
KSC1 150958Z 16005KT 23/16 A2985 RMK A01 T02280159  RH  065%=      5-min Rain = 0
KSC1 150959Z 16006KT 23/16 A2985 RMK A01 T02280159  RH  065%=      5-min Rain = 0
KSC1 151000Z 17006KT 23/16 A2985 RMK A01 T02280159  RH  065%=      5-min Rain = 0
KSC1 151001Z 17005KT 23/16 A2985 RMK A01 T02270159  RH  065%=      5-min Rain = 0
KSC1 151002Z 17003KT 23/16 A2986 RMK A01 T02270159  RH  065%=      5-min Rain = 0
KSC1 151003Z 19005KT 23/16 A2986 RMK A01 T02270159  RH  065%=      5-min Rain = 0
KSC1 151004Z 18004KT 23/16 A2986 RMK A01 T02270158  RH  065%=      5-min Rain = 0
KSC1 151005Z 18004KT 23/16 A2986 RMK A01 T02270159  RH  065%=      5-min Rain = 0
KSC1 151006Z 19005KT 23/16 A2986 RMK A01 T02270158  RH  065%=      5-min Rain = 0
KSC1 151007Z 18004KT 23/16 A2986 RMK A01 T02270158  RH  065%=      5-min Rain = 0
KSC1 151008Z 20002KT 23/16 A2986 RMK A01 T02280158  RH  065%=      5-min Rain = 0
KSC1 151009Z 19005KT 23/16 A2987 RMK A01 T02280158  RH  065%=      5-min Rain = 0
KSC1 151010Z 21004KT 23/16 A2987 RMK A01 T02280158  RH  065%=      5-min Rain = 0
KSC1 151011Z 21002KT 23/16 A2987 RMK A01 T02270158  RH  065%=      5-min Rain = 0
KSC1 151012Z 22004KT 23/16 A2987 RMK A01 T02270158  RH  065%=      5-min Rain = 0
KSC1 151013Z 22003KT 23/16 A2987 RMK A01 T02270158  RH  065%=      5-min Rain = 0
KSC1 151014Z 22004KT 23/16 A2987 RMK A01 T02260158  RH  065%=      5-min Rain = 0
KSC1 151015Z 22004KT 23/16 A2987 RMK A01 T02260158  RH  065%=      5-min Rain = 0
KSC1 151016Z 20004KT 23/16 A2987 RMK A01 T02250158  RH  066%=      5-min Rain = 0
KSC1 151017Z 19004KT 22/16 A2987 RMK A01 T02240158  RH  066%=      5-min Rain = 0
KSC1 151018Z 19005KT 22/16 A2987 RMK A01 T02240158  RH  066%=      5-min Rain = 0
KSC1 151019Z 18006KT 22/16 A2987 RMK A01 T02230158  RH  067%=      5-min Rain = 0
KSC1 151020Z 17006KT 22/16 A2987 RMK A01 T02220158  RH  067%=      5-min Rain = 0
KSC1 151021Z 17006KT 22/16 A2987 RMK A01 T02230158  RH  067%=      5-min Rain = 0
KSC1 151022Z 18006KT 22/16 A2987 RMK A01 T02230158  RH  067%=      5-min Rain = 0
KSC1 151023Z 18006KT 22/16 A2987 RMK A01 T02230158  RH  067%=      5-min Rain = 0
KSC1 151024Z 17005KT 22/16 A2987 RMK A01 T02230158  RH  067%=      5-min Rain = 0
KSC1 151025Z 18006KT 22/16 A2987 RMK A01 T02230158  RH  067%=      5-min Rain = 0
KSC1 151026Z 18005KT 22/16 A2987 RMK A01 T02230158  RH  067%=      5-min Rain = 0
KSC1 151027Z 18005KT 22/16 A2987 RMK A01 T02230158  RH  067%=      5-min Rain = 0
KSC1 151028Z 18005KT 22/16 A2987 RMK A01 T02230158  RH  067%=      5-min Rain = 0
KSC1 151029Z 17006KT 22/16 A2987 RMK A01 T02230158  RH  067%=      5-min Rain = 0
KSC1 151030Z 17007KT 22/16 A2987 RMK A01 T02220158  RH  067%=      5-min Rain = 0
KSC1 151031Z 17007KT 22/16 A2987 RMK A01 T02220158  RH  067%=      5-min Rain = 0
KSC1 151032Z 17007KT 22/16 A2987 RMK A01 T02220158  RH  067%=      5-min Rain = 0
KSC1 151033Z 17007KT 22/16 A2987 RMK A01 T02210158  RH  067%=      5-min Rain = 0
KSC1 151034Z 17006KT 22/16 A2987 RMK A01 T02210158  RH  067%=      5-min Rain = 0
KSC1 151035Z 17004KT 22/16 A2987 RMK A01 T02210158  RH  067%=      5-min Rain = 0
KSC1 151036Z 18004KT 22/16 A2987 RMK A01 T02210158  RH  067%=      5-min Rain = 0
KSC1 151037Z 18005KT 22/16 A2987 RMK A01 T02210158  RH  067%=      5-min Rain = 0
KSC1 151038Z 17005KT 22/16 A2987 RMK A01 T02210158  RH  067%=      5-min Rain = 0
KSC1 151039Z 17005KT 22/16 A2987 RMK A01 T02210158  RH  067%=      5-min Rain = 0
KSC1 151040Z 19005KT 22/16 A2987 RMK A01 T02210158  RH  068%=      5-min Rain = 0
KSC1 151041Z 18005KT 22/16 A2987 RMK A01 T02210158  RH  068%=      5-min Rain = 0
KSC1 151042Z 18005KT 22/16 A2987 RMK A01 T02200158  RH  068%=      5-min Rain = 0
KSC1 151043Z 17005KT 22/16 A2987 RMK A01 T02200158  RH  068%=      5-min Rain = 0
KSC1 151044Z 17004KT 22/16 A2987 RMK A01 T02200158  RH  068%=      5-min Rain = 0
KSC1 151045Z 17005KT 22/16 A2987 RMK A01 T02190158  RH  068%=      5-min Rain = 0
KSC1 151046Z 18007KT 22/16 A2987 RMK A01 T02190158  RH  068%=      5-min Rain = 0
KSC1 151047Z 17006KT 22/16 A2987 RMK A01 T02190159  RH  068%=      5-min Rain = 0
KSC1 151048Z 17007KT 22/16 A2987 RMK A01 T02190158  RH  068%=      5-min Rain = 0
KSC1 151049Z 17008KT 22/16 A2987 RMK A01 T02190159  RH  068%=      5-min Rain = 0
KSC1 151050Z 17006KT 22/16 A2987 RMK A01 T02190159  RH  069%=      5-min Rain = 0
KSC1 151051Z 17009KT 22/16 A2987 RMK A01 T02190159  RH  069%=      5-min Rain = 0
KSC1 151052Z 17009KT 22/16 A2987 RMK A01 T02200159  RH  069%=      5-min Rain = 0
KSC1 151053Z 16007KT 22/16 A2987 RMK A01 T02190159  RH  069%=      5-min Rain = 0
KSC1 151054Z 16007KT 22/16 A2987 RMK A01 T02190160  RH  069%=      5-min Rain = 0
KSC1 151055Z 17009KT 22/16 A2987 RMK A01 T02190159  RH  069%=      5-min Rain = 0
KSC1 151056Z 17008KT 22/16 A2987 RMK A01 T02180160  RH  069%=      5-min Rain = 0
KSC1 151057Z 17009KT 22/16 A2987 RMK A01 T02180160  RH  069%=      5-min Rain = 0
KSC1 151058Z 17009KT 22/16 A2987 RMK A01 T02190160  RH  069%=      5-min Rain = 0
KSC1 151059Z 17009KT 22/16 A2987 RMK A01 T02190160  RH  069%=      5-min Rain = 0
KSC1 151100Z 17008KT 22/16 A2987 RMK A01 T02190160  RH  069%=      5-min Rain = 0
KSC1 151101Z 16007KT 22/16 A2987 RMK A01 T02190161  RH  069%=      5-min Rain = 0
KSC1 151102Z 17008KT 22/16 A2987 RMK A01 T02190161  RH  069%=      5-min Rain = 0
KSC1 151103Z 16008KT 22/16 A2987 RMK A01 T02180161  RH  070%=      5-min Rain = 0
KSC1 151104Z 17010KT 22/16 A2987 RMK A01 T02180161  RH  070%=      5-min Rain = 0
KSC1 151105Z 16010KT 22/16 A2987 RMK A01 T02180162  RH  070%=      5-min Rain = 0
KSC1 151106Z 17009KT 22/16 A2987 RMK A01 T02190162  RH  070%=      5-min Rain = 0
KSC1 151107Z 16007KT 22/16 A2987 RMK A01 T02190162  RH  070%=      5-min Rain = 0
KSC1 151108Z 16009KT 22/16 A2987 RMK A01 T02190162  RH  070%=      5-min Rain = 0
KSC1 151109Z 16009KT 22/16 A2987 RMK A01 T02180162  RH  070%=      5-min Rain = 0
KSC1 151110Z 16010KT 22/16 A2987 RMK A01 T02180162  RH  071%=      5-min Rain = 0
KSC1 151111Z 16008KT 22/16 A2987 RMK A01 T02180162  RH  071%=      5-min Rain = 0
KSC1 151112Z 16008KT 22/16 A2987 RMK A01 T02170162  RH  071%=      5-min Rain = 0
KSC1 151113Z 16007KT 22/16 A2987 RMK A01 T02170162  RH  071%=      5-min Rain = 0
KSC1 151114Z 16008KT 22/16 A2987 RMK A01 T02160163  RH  071%=      5-min Rain = 0
KSC1 151115Z 16010KT 22/16 A2987 RMK A01 T02160162  RH  072%=      5-min Rain = 0
KSC1 151116Z 16007KT 22/16 A2987 RMK A01 T02160163  RH  072%=      5-min Rain = 0
KSC1 151117Z 16009KT 22/16 A2987 RMK A01 T02150163  RH  072%=      5-min Rain = 0
KSC1 151118Z 16009KT 22/16 A2987 RMK A01 T02150163  RH  072%=      5-min Rain = 0
KSC1 151119Z 16008KT 22/16 A2987 RMK A01 T02150163  RH  072%=      5-min Rain = 0
KSC1 151120Z 16006KT 22/16 A2987 RMK A01 T02150164  RH  072%=      5-min Rain = 0
KSC1 151121Z 16009KT 22/16 A2987 RMK A01 T02150164  RH  072%=      5-min Rain = 0
KSC1 151122Z 16008KT 22/16 A2987 RMK A01 T02150164  RH  073%=      5-min Rain = 0
KSC1 151123Z 16008KT 22/16 A2987 RMK A01 T02150164  RH  073%=      5-min Rain = 0
KSC1 151124Z 15009KT 22/16 A2987 RMK A01 T02150164  RH  073%=      5-min Rain = 0
KSC1 151125Z 16007KT 22/17 A2987 RMK A01 T02150165  RH  073%=      5-min Rain = 0
KSC1 151126Z 16008KT 22/17 A2987 RMK A01 T02150165  RH  073%=      5-min Rain = 0
KSC1 151127Z 17007KT 22/17 A2987 RMK A01 T02150165  RH  073%=      5-min Rain = 0
KSC1 151128Z 17010KT 22/17 A2987 RMK A01 T02150165  RH  073%=      5-min Rain = 0
KSC1 151129Z 16007KT 22/17 A2987 RMK A01 T02150166  RH  074%=      5-min Rain = 0
KSC1 151130Z 17008KT 22/17 A2987 RMK A01 T02150166  RH  074%=      5-min Rain = 0
KSC1 151131Z 16007G12KT 22/17 A2987 RMK A01 T02150166  RH  074%=      5-min Rain = 0
KSC1 151132Z 17009KT 22/17 A2986 RMK A01 T02150166  RH  074%=      5-min Rain = 0
KSC1 151133Z 17010KT 22/17 A2986 RMK A01 T02150166  RH  074%=      5-min Rain = 0
KSC1 151134Z 16008KT 22/17 A2987 RMK A01 T02150167  RH  074%=      5-min Rain = 0
KSC1 151135Z 17011KT 22/17 A2986 RMK A01 T02150167  RH  074%=      5-min Rain = 0
KSC1 151136Z 16010KT 22/17 A2986 RMK A01 T02150167  RH  074%=      5-min Rain = 0
KSC1 151137Z 16010KT 22/17 A2986 RMK A01 T02150167  RH  074%=      5-min Rain = 0
KSC1 151138Z 16009KT 22/17 A2986 RMK A01 T02150167  RH  074%=      5-min Rain = 0
KSC1 151139Z 16008KT 21/17 A2986 RMK A01 T02140167  RH  074%=      5-min Rain = 0
KSC1 151140Z 16010KT 21/17 A2986 RMK A01 T02140167  RH  075%=      5-min Rain = 0
KSC1 151141Z 16009KT 21/17 A2986 RMK A01 T02140168  RH  075%=      5-min Rain = 0
KSC1 151142Z 16008KT 21/17 A2986 RMK A01 T02140168  RH  075%=      5-min Rain = 0
KSC1 151143Z 16007KT 21/17 A2986 RMK A01 T02140168  RH  075%=      5-min Rain = 0
KSC1 151144Z 16009KT 21/17 A2986 RMK A01 T02140168  RH  075%=      5-min Rain = 0
KSC1 151145Z 16009KT 21/17 A2986 RMK A01 T02140168  RH  075%=      5-min Rain = 0
KSC1 151146Z 15009KT 21/17 A2986 RMK A01 T02130168  RH  075%=      5-min Rain = 0
KSC1 151147Z 16009KT 21/17 A2986 RMK A01 T02130169  RH  076%=      5-min Rain = 0
KSC1 151148Z 16010G15KT 21/17 A2986 RMK A01 T02130169  RH  076%=      5-min Rain = 0
KSC1 151149Z 15008KT 21/17 A2986 RMK A01 T02140169  RH  076%=      5-min Rain = 0
KSC1 151150Z 16006KT 21/17 A2986 RMK A01 T02130169  RH  076%=      5-min Rain = 0
KSC1 151151Z 16008KT 21/17 A2986 RMK A01 T02130169  RH  076%=      5-min Rain = 0
KSC1 151152Z 15005KT 21/17 A2986 RMK A01 T02120169  RH  076%=      5-min Rain = 0
KSC1 151153Z 16007G13KT 21/17 A2986 RMK A01 T02130169  RH  076%=      5-min Rain = 0
KSC1 151154Z 15008KT 21/17 A2986 RMK A01 T02120170  RH  076%=      5-min Rain = 0
KSC1 151155Z 15007KT 21/17 A2986 RMK A01 T02120169  RH  076%=      5-min Rain = 0
KSC1 151156Z 14009KT 21/17 A2986 RMK A01 T02120169  RH  076%=      5-min Rain = 0
KSC1 151157Z 15006KT 21/17 A2986 RMK A01 T02130169  RH  076%=      5-min Rain = 0
KSC1 151158Z 15006KT 21/17 A2986 RMK A01 T02130169  RH  076%=      5-min Rain = 0
KSC1 151159Z 15005KT 21/17 A2986 RMK A01 T02130170  RH  076%=      5-min Rain = 0
KSC1 151200Z 15005KT 21/17 A2986 RMK A01 T02130170  RH  076%=      5-min Rain = 0
KSC1 151201Z 14007KT 21/17 A2987 RMK A01 T02130170  RH  076%=      5-min Rain = 0
KSC1 151202Z 15005KT 21/17 A2987 RMK A01 T02130170  RH  076%=      5-min Rain = 0
KSC1 151203Z 15005KT 21/17 A2987 RMK A01 T02130170  RH  076%=      5-min Rain = 0
KSC1 151204Z 16005KT 21/17 A2987 RMK A01 T02130170  RH  076%=      5-min Rain = 0
KSC1 151205Z 16005KT 21/17 A2987 RMK A01 T02130170  RH  076%=      5-min Rain = 0
KSC1 151206Z 16005KT 21/17 A2987 RMK A01 T02140170  RH  076%=      5-min Rain = 0
KSC1 151207Z 18003KT 21/17 A2987 RMK A01 T02140171  RH  076%=      5-min Rain = 0
KSC1 151208Z 15004KT 21/17 A2987 RMK A01 T02140171  RH  076%=      5-min Rain = 0
KSC1 151209Z 15005KT 21/17 A2987 RMK A01 T02140170  RH  076%=      5-min Rain = 0
KSC1 151210Z 14005KT 21/17 A2987 RMK A01 T02140170  RH  076%=      5-min Rain = 0
KSC1 151211Z 14005KT 21/17 A2987 RMK A01 T02140170  RH  076%=      5-min Rain = 0
KSC1 151212Z 14005KT 21/17 A2987 RMK A01 T02140170  RH  076%=      5-min Rain = 0
KSC1 151213Z 15006KT 21/17 A2987 RMK A01 T02140171  RH  076%=      5-min Rain = 0
KSC1 151214Z 14005KT 21/17 A2987 RMK A01 T02140171  RH  076%=      5-min Rain = 0
KSC1 151215Z 15006KT 21/17 A2987 RMK A01 T02140171  RH  076%=      5-min Rain = 0
KSC1 151216Z 15005KT 21/17 A2987 RMK A01 T02140171  RH  076%=      5-min Rain = 0
KSC1 151217Z 15005KT 21/17 A2986 RMK A01 T02140171  RH  076%=      5-min Rain = 0
KSC1 151218Z 16006KT 22/17 A2986 RMK A01 T02150172  RH  076%=      5-min Rain = 0
KSC1 151219Z 15005KT 22/17 A2987 RMK A01 T02150171  RH  076%=      5-min Rain = 0
KSC1 151220Z 15006KT 22/17 A2987 RMK A01 T02150172  RH  076%=      5-min Rain = 0
KSC1 151221Z 15007KT 22/17 A2987 RMK A01 T02150172  RH  076%=      5-min Rain = 0
KSC1 151222Z 15005KT 22/17 A2987 RMK A01 T02150172  RH  076%=      5-min Rain = 0
KSC1 151223Z 14006KT 22/17 A2987 RMK A01 T02150172  RH  076%=      5-min Rain = 0
KSC1 151224Z 14005KT 22/17 A2986 RMK A01 T02160172  RH  076%=      5-min Rain = 0
KSC1 151225Z 13005KT 22/17 A2986 RMK A01 T02160172  RH  076%=      5-min Rain = 0
KSC1 151226Z 12005KT 22/17 A2986 RMK A01 T02170172  RH  076%=      5-min Rain = 0
KSC1 151227Z 13003KT 22/17 A2986 RMK A01 T02170172  RH  075%=      5-min Rain = 0
KSC1 151228Z 13004KT 22/17 A2986 RMK A01 T02170172  RH  075%=      5-min Rain = 0
KSC1 151229Z 13004KT 22/17 A2986 RMK A01 T02180172  RH  075%=      5-min Rain = 0
KSC1 151230Z 14004KT 22/17 A2986 RMK A01 T02180172  RH  075%=      5-min Rain = 0
KSC1 151231Z 14003KT 22/17 A2987 RMK A01 T02180172  RH  075%=      5-min Rain = 0
KSC1 151232Z 14003KT 22/17 A2986 RMK A01 T02190172  RH  074%=      5-min Rain = 0
KSC1 151233Z 13005KT 22/17 A2987 RMK A01 T02190171  RH  074%=      5-min Rain = 0
KSC1 151234Z 14003KT 22/17 A2987 RMK A01 T02200171  RH  074%=      5-min Rain = 0
KSC1 151235Z 15004KT 22/17 A2987 RMK A01 T02200172  RH  074%=      5-min Rain = 0
KSC1 151236Z 15003KT 22/17 A2987 RMK A01 T02210172  RH  074%=      5-min Rain = 0
KSC1 151237Z 15004KT 22/17 A2987 RMK A01 T02210172  RH  074%=      5-min Rain = 0
KSC1 151238Z 14003KT 22/17 A2987 RMK A01 T02210172  RH  073%=      5-min Rain = 0
KSC1 151239Z 15004KT 22/17 A2987 RMK A01 T02220172  RH  073%=      5-min Rain = 0
KSC1 151240Z 16005KT 22/17 A2987 RMK A01 T02220172  RH  073%=      5-min Rain = 0
KSC1 151241Z 15005KT 22/17 A2987 RMK A01 T02230172  RH  073%=      5-min Rain = 0
KSC1 151242Z 15006KT 22/17 A2987 RMK A01 T02230173  RH  073%=      5-min Rain = 0
KSC1 151243Z 15004KT 22/17 A2987 RMK A01 T02230173  RH  073%=      5-min Rain = 0
KSC1 151244Z 16003KT 22/17 A2987 RMK A01 T02240173  RH  073%=      5-min Rain = 0
KSC1 151245Z 16004KT 22/17 A2988 RMK A01 T02240174  RH  073%=      5-min Rain = 0
KSC1 151246Z 16005KT 22/17 A2987 RMK A01 T02240174  RH  073%=      5-min Rain = 0
KSC1 151247Z 15007KT 23/17 A2987 RMK A01 T02250174  RH  073%=      5-min Rain = 0
KSC1 151248Z 16007KT 23/17 A2987 RMK A01 T02250174  RH  073%=      5-min Rain = 0
KSC1 151249Z 15007KT 22/17 A2987 RMK A01 T02240174  RH  073%=      5-min Rain = 0
KSC1 151250Z 16005KT 22/17 A2987 RMK A01 T02240174  RH  073%=      5-min Rain = 0
KSC1 151251Z 16005KT 22/18 A2987 RMK A01 T02240175  RH  074%=      5-min Rain = 0
KSC1 151252Z 17005KT 22/17 A2987 RMK A01 T02240174  RH  074%=      5-min Rain = 0
KSC1 151253Z 15005KT 22/17 A2987 RMK A01 T02240174  RH  073%=      5-min Rain = 0
KSC1 151254Z 16007KT 22/18 A2987 RMK A01 T02240175  RH  073%=      5-min Rain = 0
KSC1 151255Z 17007KT 23/18 A2987 RMK A01 T02250175  RH  073%=      5-min Rain = 0
KSC1 151256Z 16008KT 23/18 A2987 RMK A01 T02250175  RH  073%=      5-min Rain = 0
KSC1 151257Z 16008KT 23/18 A2987 RMK A01 T02250175  RH  074%=      5-min Rain = 0
KSC1 151258Z 17008KT 23/18 A2988 RMK A01 T02250176  RH  074%=      5-min Rain = 0
KSC1 151259Z 16007KT 23/18 A2987 RMK A01 T02250176  RH  074%=      5-min Rain = 0
KSC1 151300Z 16008KT 23/18 A2987 RMK A01 T02250175  RH  074%=      5-min Rain = 0
KSC1 151301Z 16005KT 23/18 A2987 RMK A01 T02250176  RH  074%=      5-min Rain = 0
KSC1 151302Z 15006KT 23/18 A2987 RMK A01 T02260177  RH  074%=      5-min Rain = 0
KSC1 151303Z 16007KT 23/18 A2987 RMK A01 T02270177  RH  073%=      5-min Rain = 0
KSC1 151304Z 15005KT 23/18 A2987 RMK A01 T02270177  RH  073%=      5-min Rain = 0
KSC1 151305Z 15005KT 23/18 A2987 RMK A01 T02280178  RH  073%=      5-min Rain = 0
KSC1 151306Z 16005KT 23/18 A2987 RMK A01 T02290178  RH  073%=      5-min Rain = 0
KSC1 151307Z 15006KT 23/18 A2987 RMK A01 T02290178  RH  073%=      5-min Rain = 0
KSC1 151308Z 15004KT 23/18 A2988 RMK A01 T02290177  RH  072%=      5-min Rain = 0
KSC1 151309Z 16006KT 23/18 A2987 RMK A01 T02300178  RH  072%=      5-min Rain = 0
KSC1 151310Z 17003KT 23/18 A2987 RMK A01 T02300178  RH  072%=      5-min Rain = 0
KSC1 151311Z 15007KT 23/18 A2987 RMK A01 T02310178  RH  072%=      5-min Rain = 0
KSC1 151312Z 17010KT 23/18 A2987 RMK A01 T02320177  RH  071%=      5-min Rain = 0
KSC1 151313Z 16008KT 23/18 A2987 RMK A01 T02320177  RH  071%=      5-min Rain = 0
KSC1 151314Z 16009KT 23/18 A2987 RMK A01 T02320177  RH  071%=      5-min Rain = 0
KSC1 151315Z 16008KT 23/18 A2987 RMK A01 T02320176  RH  071%=      5-min Rain = 0
KSC1 151316Z 15009KT 23/18 A2987 RMK A01 T02320176  RH  071%=      5-min Rain = 0
KSC1 151317Z 15007KT 23/18 A2987 RMK A01 T02330176  RH  070%=      5-min Rain = 0
KSC1 151318Z 16011KT 23/18 A2987 RMK A01 T02340176  RH  070%=      5-min Rain = 0
KSC1 151319Z 17007KT 23/18 A2987 RMK A01 T02340175  RH  069%=      5-min Rain = 0
KSC1 151320Z 17008KT 23/18 A2987 RMK A01 T02340176  RH  070%=      5-min Rain = 0
KSC1 151321Z 16006KT 23/18 A2987 RMK A01 T02340175  RH  069%=      5-min Rain = 0
KSC1 151322Z 17009KT 23/18 A2987 RMK A01 T02330175  RH  070%=      5-min Rain = 0
KSC1 151323Z 15008KT 23/17 A2987 RMK A01 T02320174  RH  070%=      5-min Rain = 0
KSC1 151324Z 16009KT 23/17 A2987 RMK A01 T02310173  RH  070%=      5-min Rain = 0
KSC1 151325Z 17009KT 23/17 A2987 RMK A01 T02300172  RH  070%=      5-min Rain = 0
KSC1 151326Z 16006KT 23/17 A2987 RMK A01 T02300172  RH  070%=      5-min Rain = 0
KSC1 151327Z 16009KT 23/17 A2987 RMK A01 T02290172  RH  070%=      5-min Rain = 0
KSC1 151328Z 16010KT 23/17 A2988 RMK A01 T02290171  RH  070%=      5-min Rain = 0
KSC1 151329Z 16010KT 23/17 A2988 RMK A01 T02290171  RH  069%=      5-min Rain = 0
KSC1 151330Z 16008KT 23/17 A2988 RMK A01 T02310171  RH  069%=      5-min Rain = 0
KSC1 151331Z 16012KT 23/17 A2988 RMK A01 T02320171  RH  068%=      5-min Rain = 0
KSC1 151332Z 16010KT 23/17 A2988 RMK A01 T02340170  RH  068%=      5-min Rain = 0
KSC1 151333Z 16008KT 24/17 A2988 RMK A01 T02350170  RH  067%=      5-min Rain = 0
KSC1 151334Z 16008KT 24/17 A2988 RMK A01 T02360171  RH  067%=      5-min Rain = 0
KSC1 151335Z 16009KT 24/17 A2988 RMK A01 T02380171  RH  066%=      5-min Rain = 0
KSC1 151336Z 15010KT 24/17 A2988 RMK A01 T02390171  RH  066%=      5-min Rain = 0
KSC1 151337Z 17011KT 24/17 A2988 RMK A01 T02400171  RH  065%=      5-min Rain = 0
KSC1 151338Z 17010KT 24/17 A2988 RMK A01 T02400170  RH  065%=      5-min Rain = 0
KSC1 151339Z 17010KT 24/17 A2988 RMK A01 T02410170  RH  064%=      5-min Rain = 0
KSC1 151340Z 14008KT 24/17 A2988 RMK A01 T02420170  RH  064%=      5-min Rain = 0
KSC1 151341Z 16006KT 24/17 A2988 RMK A01 T02430170  RH  064%=      5-min Rain = 0
KSC1 151342Z 17012KT 24/17 A2988 RMK A01 T02430170  RH  064%=      5-min Rain = 0
KSC1 151343Z 16011KT 24/17 A2988 RMK A01 T02440169  RH  063%=      5-min Rain = 0
KSC1 151344Z 16013KT 24/17 A2988 RMK A01 T02440168  RH  063%=      5-min Rain = 0
KSC1 151345Z 16013KT 24/17 A2988 RMK A01 T02440167  RH  062%=      5-min Rain = 0
KSC1 151346Z 17012KT 25/17 A2988 RMK A01 T02450167  RH  062%=      5-min Rain = 0
KSC1 151347Z 16007KT 25/17 A2988 RMK A01 T02450168  RH  062%=      5-min Rain = 0
KSC1 151348Z 16009KT 25/17 A2988 RMK A01 T02460169  RH  062%=      5-min Rain = 0
KSC1 151349Z 18012KT 25/17 A2988 RMK A01 T02480168  RH  061%=      5-min Rain = 0
KSC1 151350Z 17012KT 25/17 A2988 RMK A01 T02480167  RH  061%=      5-min Rain = 0
KSC1 151351Z 17013KT 25/17 A2988 RMK A01 T02490167  RH  061%=      5-min Rain = 0
KSC1 151352Z 17010KT 25/17 A2988 RMK A01 T02490166  RH  060%=      5-min Rain = 0
KSC1 151353Z 16007KT 25/17 A2988 RMK A01 T02500168  RH  060%=      5-min Rain = 0
KSC1 151354Z 17008KT 25/17 A2988 RMK A01 T02520169  RH  060%=      5-min Rain = 0
KSC1 151355Z 16010G15KT 25/17 A2988 RMK A01 T02530169  RH  060%=      5-min Rain = 0
KSC1 151356Z 17011KT 25/17 A2988 RMK A01 T02530167  RH  059%=      5-min Rain = 0
KSC1 151357Z 17012KT 25/17 A2988 RMK A01 T02530167  RH  059%=      5-min Rain = 0
KSC1 151358Z 16011KT 25/17 A2987 RMK A01 T02530166  RH  058%=      5-min Rain = 0
KSC1 151359Z 17013KT 25/16 A2987 RMK A01 T02530164  RH  058%=      5-min Rain = 0
KSC1 151400Z 17009KT 25/16 A2987 RMK A01 T02540163  RH  057%=      5-min Rain = 0
KSC1 151401Z 18010KT 26/17 A2987 RMK A01 T02560165  RH  057%=      5-min Rain = 0
KSC1 151402Z 19011KT 26/16 A2987 RMK A01 T02570163  RH  056%=      5-min Rain = 0
KSC1 151403Z 18008KT 26/16 A2987 RMK A01 T02570163  RH  056%=      5-min Rain = 0
KSC1 151404Z 17010KT 26/16 A2987 RMK A01 T02570164  RH  056%=      5-min Rain = 0
KSC1 151405Z 17013G18KT 26/16 A2987 RMK A01 T02600163  RH  055%=      5-min Rain = 0
KSC1 151406Z 17012KT 26/16 A2987 RMK A01 T02590162  RH  055%=      5-min Rain = 0
KSC1 151407Z 16013G19KT 26/16 A2987 RMK A01 T02590162  RH  055%=      5-min Rain = 0
KSC1 151408Z 17012G17KT 26/16 A2987 RMK A01 T02600160  RH  054%=      5-min Rain = 0
KSC1 151409Z 18015G20KT 26/16 A2987 RMK A01 T02610159  RH  053%=      5-min Rain = 0
KSC1 151410Z 18014G20KT 26/16 A2987 RMK A01 T02610158  RH  053%=      5-min Rain = 0
KSC1 151411Z 18015G21KT 26/16 A2987 RMK A01 T02610158  RH  053%=      5-min Rain = 0
KSC1 151412Z 17009KT 26/16 A2988 RMK A01 T02610159  RH  053%=      5-min Rain = 0
KSC1 151413Z 17014G27KT 26/16 A2987 RMK A01 T02630160  RH  053%=      5-min Rain = 0
KSC1 151414Z 18015KT 26/16 A2987 RMK A01 T02640156  RH  051%=      5-min Rain = 0
KSC1 151415Z 18015KT 26/15 A2987 RMK A01 T02630154  RH  051%=      5-min Rain = 0
KSC1 151416Z 18018KT 26/15 A2987 RMK A01 T02630153  RH  051%=      5-min Rain = 0
KSC1 151417Z 18013KT 26/15 A2987 RMK A01 T02630154  RH  051%=      5-min Rain = 0
KSC1 151418Z 18016KT 26/15 A2987 RMK A01 T02630154  RH  051%=      5-min Rain = 0
KSC1 151419Z 18015KT 26/15 A2987 RMK A01 T02630154  RH  051%=      5-min Rain = 0
KSC1 151420Z 18013G18KT 26/15 A2987 RMK A01 T02640154  RH  051%=      5-min Rain = 0
KSC1 151421Z 18013G18KT 27/16 A2987 RMK A01 T02650155  RH  051%=      5-min Rain = 0
KSC1 151422Z 18013G19KT 27/16 A2987 RMK A01 T02660155  RH  050%=      5-min Rain = 0
KSC1 151423Z 18012G18KT 27/16 A2987 RMK A01 T02670155  RH  050%=      5-min Rain = 0
KSC1 151424Z 18013G18KT 27/16 A2987 RMK A01 T02680155  RH  050%=      5-min Rain = 0
KSC1 151425Z 18014G19KT 27/15 A2987 RMK A01 T02680154  RH  050%=      5-min Rain = 0
KSC1 151426Z 18015KT 27/15 A2987 RMK A01 T02680154  RH  050%=      5-min Rain = 0
KSC1 151427Z 19013KT 27/15 A2987 RMK A01 T02680154  RH  050%=      5-min Rain = 0
KSC1 151428Z 18012KT 27/16 A2987 RMK A01 T02680155  RH  050%=      5-min Rain = 0
KSC1 151429Z 17011G17KT 27/15 A2987 RMK A01 T02680154  RH  050%=      5-min Rain = 0
KSC1 151430Z 18012G17KT 27/16 A2987 RMK A01 T02690155  RH  050%=      5-min Rain = 0
KSC1 151431Z 17012G17KT 27/16 A2987 RMK A01 T02690155  RH  050%=      5-min Rain = 0
KSC1 151432Z 18012KT 27/15 A2987 RMK A01 T02700154  RH  049%=      5-min Rain = 0
KSC1 151433Z 17013KT 27/15 A2987 RMK A01 T02700153  RH  049%=      5-min Rain = 0
KSC1 151434Z 17013KT 27/15 A2987 RMK A01 T02700153  RH  049%=      5-min Rain = 0
KSC1 151435Z 18012KT 27/15 A2987 RMK A01 T02710153  RH  048%=      5-min Rain = 0
KSC1 151436Z 18014KT 27/15 A2987 RMK A01 T02720153  RH  048%=      5-min Rain = 0
KSC1 151437Z 18011G16KT 27/15 A2987 RMK A01 T02720152  RH  048%=      5-min Rain = 0
KSC1 151438Z 17013KT 27/15 A2987 RMK A01 T02730153  RH  048%=      5-min Rain = 0
KSC1 151439Z 17013KT 27/15 A2987 RMK A01 T02730153  RH  048%=      5-min Rain = 0
KSC1 151440Z 18014KT 27/15 A2987 RMK A01 T02730151  RH  047%=      5-min Rain = 0
KSC1 151441Z 17012KT 27/15 A2987 RMK A01 T02740152  RH  047%=      5-min Rain = 0
KSC1 151442Z 18011KT 27/15 A2987 RMK A01 T02740152  RH  047%=      5-min Rain = 0
KSC1 151443Z 19008KT 28/15 A2988 RMK A01 T02750153  RH  047%=      5-min Rain = 0
KSC1 151444Z 18008KT 28/15 A2988 RMK A01 T02760154  RH  047%=      5-min Rain = 0
KSC1 151445Z 18008KT 28/16 A2987 RMK A01 T02790156  RH  047%=      5-min Rain = 0
KSC1 151446Z 18010KT 28/16 A2987 RMK A01 T02810155  RH  046%=      5-min Rain = 0
KSC1 151447Z 16009KT 28/15 A2987 RMK A01 T02820153  RH  046%=      5-min Rain = 0
KSC1 151448Z 17011KT 28/15 A2987 RMK A01 T02830154  RH  045%=      5-min Rain = 0
KSC1 151449Z 18010G15KT 28/15 A2987 RMK A01 T02840153  RH  045%=      5-min Rain = 0
KSC1 151450Z 18011KT 28/15 A2987 RMK A01 T02840152  RH  045%=      5-min Rain = 0
KSC1 151451Z 18009KT 28/15 A2987 RMK A01 T02840151  RH  044%=      5-min Rain = 0
KSC1 151452Z 19010KT 28/15 A2987 RMK A01 T02830151  RH  044%=      5-min Rain = 0
KSC1 151453Z 19008G13KT 28/15 A2987 RMK A01 T02840151  RH  044%=      5-min Rain = 0
KSC1 151454Z 18011G17KT 29/15 A2987 RMK A01 T02850151  RH  044%=      5-min Rain = 0
KSC1 151455Z 20012KT 29/15 A2987 RMK A01 T02850148  RH  043%=      5-min Rain = 0
KSC1 151456Z 20012KT 29/15 A2987 RMK A01 T02850149  RH  044%=      5-min Rain = 0
KSC1 151457Z 20008KT 28/15 A2987 RMK A01 T02840148  RH  043%=      5-min Rain = 0
KSC1 151458Z 18008KT 29/15 A2987 RMK A01 T02850150  RH  044%=      5-min Rain = 0
KSC1 151459Z 20010G15KT 29/15 A2987 RMK A01 T02870151  RH  043%=      5-min Rain = 0
KSC1 151500Z 20013KT 29/15 A2987 RMK A01 T02890149  RH  043%=      5-min Rain = 0
KSC1 151501Z 20010KT 29/15 A2987 RMK A01 T02890148  RH  042%=      5-min Rain = 0
KSC1 151502Z 20010KT 29/15 A2987 RMK A01 T02900149  RH  042%=      5-min Rain = 0
KSC1 151503Z 19009KT 29/15 A2987 RMK A01 T02910151  RH  042%=      5-min Rain = 0
KSC1 151504Z 20009KT 29/15 A2987 RMK A01 T02920153  RH  043%=      5-min Rain = 0
KSC1 151505Z 20011KT 29/15 A2987 RMK A01 T02940151  RH  042%=      5-min Rain = 0
KSC1 151506Z 20012KT 29/15 A2987 RMK A01 T02930149  RH  041%=      5-min Rain = 0
KSC1 151507Z 18010KT 29/15 A2987 RMK A01 T02910149  RH  042%=      5-min Rain = 0
KSC1 151508Z 18010KT 29/15 A2987 RMK A01 T02910151  RH  043%=      5-min Rain = 0
KSC1 151509Z 19012G19KT 29/15 A2987 RMK A01 T02910148  RH  042%=      5-min Rain = 0
KSC1 151510Z 18013KT 29/15 A2987 RMK A01 T02920149  RH  042%=      5-min Rain = 0
KSC1 151511Z 18014KT 29/15 A2987 RMK A01 T02920148  RH  042%=      5-min Rain = 0
KSC1 151512Z 17012KT 29/15 A2987 RMK A01 T02920147  RH  041%=      5-min Rain = 0
KSC1 151513Z 18011KT 29/15 A2987 RMK A01 T02920149  RH  042%=      5-min Rain = 0
KSC1 151514Z 20011KT 29/15 A2987 RMK A01 T02920148  RH  042%=      5-min Rain = 0
KSC1 151515Z 20009KT 29/15 A2987 RMK A01 T02920150  RH  042%=      5-min Rain = 0
KSC1 151516Z 18014KT 30/15 A2987 RMK A01 T02950149  RH  041%=      5-min Rain = 0
KSC1 151517Z 19015KT 30/15 A2987 RMK A01 T02950148  RH  041%=      5-min Rain = 0
KSC1 151518Z 20012KT 30/15 A2987 RMK A01 T02960147  RH  040%=      5-min Rain = 0
KSC1 151519Z 18009KT 30/15 A2987 RMK A01 T02960148  RH  041%=      5-min Rain = 0
KSC1 151520Z 19007KT 30/15 A2987 RMK A01 T02970151  RH  041%=      5-min Rain = 0
KSC1 151521Z 20010KT 30/15 A2987 RMK A01 T03000152  RH  041%=      5-min Rain = 0
KSC1 151522Z 20011KT 30/15 A2987 RMK A01 T03010149  RH  039%=      5-min Rain = 0
KSC1 151523Z 20013KT 30/15 A2987 RMK A01 T03020145  RH  038%=      5-min Rain = 0
KSC1 151524Z 19012KT 30/14 A2987 RMK A01 T03010144  RH  038%=      5-min Rain = 0
KSC1 151525Z 18013KT 30/15 A2987 RMK A01 T03000146  RH  039%=      5-min Rain = 0
KSC1 151526Z 17013KT 30/15 A2987 RMK A01 T02990145  RH  039%=      5-min Rain = 0
KSC1 151527Z 18012KT 30/15 A2986 RMK A01 T02990145  RH  039%=      5-min Rain = 0
KSC1 151528Z 19010KT 30/15 A2986 RMK A01 T02990146  RH  039%=      5-min Rain = 0
KSC1 151529Z 19014KT 30/15 A2987 RMK A01 T03000146  RH  039%=      5-min Rain = 0
KSC1 151530Z 20013KT 30/15 A2987 RMK A01 T03010146  RH  039%=      5-min Rain = 0
KSC1 151531Z 20011KT 30/15 A2987 RMK A01 T03020145  RH  038%=      5-min Rain = 0
KSC1 151532Z 19012KT 30/15 A2987 RMK A01 T03020147  RH  039%=      5-min Rain = 0
KSC1 151533Z 20008KT 30/15 A2987 RMK A01 T03030146  RH  039%=      5-min Rain = 0
KSC1 151534Z 20008KT 31/15 A2987 RMK A01 T03050147  RH  038%=      5-min Rain = 0
KSC1 151535Z 20010KT 31/15 A2987 RMK A01 T03070149  RH  038%=      5-min Rain = 0
KSC1 151536Z 19012KT 31/15 A2987 RMK A01 T03070148  RH  038%=      5-min Rain = 0
KSC1 151537Z 19013KT 31/15 A2986 RMK A01 T03080146  RH  038%=      5-min Rain = 0
KSC1 151538Z 20012KT 31/15 A2986 RMK A01 T03070146  RH  038%=      5-min Rain = 0
KSC1 151539Z 20011KT 31/15 A2986 RMK A01 T03060147  RH  038%=      5-min Rain = 0
KSC1 151540Z 19012G17KT 31/15 A2986 RMK A01 T03070146  RH  038%=      5-min Rain = 0
KSC1 151541Z 19013G18KT 31/15 A2986 RMK A01 T03080146  RH  037%=      5-min Rain = 0
KSC1 151542Z 20012KT 31/14 A2986 RMK A01 T03080144  RH  037%=      5-min Rain = 0
KSC1 151543Z 21014KT 31/14 A2986 RMK A01 T03070143  RH  037%=      5-min Rain = 0
KSC1 151544Z 21012KT 31/14 A2986 RMK A01 T03070143  RH  037%=      5-min Rain = 0
KSC1 151545Z 20010G17KT 31/15 A2986 RMK A01 T03070146  RH  038%=      5-min Rain = 0
KSC1 151546Z 21011G16KT 31/14 A2986 RMK A01 T03100143  RH  036%=      5-min Rain = 0
KSC1 151547Z 20012KT 31/14 A2986 RMK A01 T03080143  RH  037%=      5-min Rain = 0
KSC1 151548Z 20013KT 31/14 A2986 RMK A01 T03080143  RH  037%=      5-min Rain = 0
KSC1 151549Z 20011KT 31/14 A2986 RMK A01 T03070144  RH  037%=      5-min Rain = 0
KSC1 151550Z 19014KT 31/15 A2986 RMK A01 T03070145  RH  037%=      5-min Rain = 0
KSC1 151551Z 19012G18KT 31/14 A2986 RMK A01 T03070144  RH  037%=      5-min Rain = 0
KSC1 151552Z 20012G17KT 31/14 A2986 RMK A01 T03090144  RH  037%=      5-min Rain = 0
KSC1 151553Z 19010KT 31/14 A2986 RMK A01 T03090144  RH  037%=      5-min Rain = 0
KSC1 151554Z 19007KT 31/15 A2986 RMK A01 T03110145  RH  037%=      5-min Rain = 0
KSC1 151555Z 21010G17KT 31/15 A2986 RMK A01 T03130149  RH  037%=      5-min Rain = 0
KSC1 151556Z 20011KT 32/15 A2986 RMK A01 T03150147  RH  036%=      5-min Rain = 0
KSC1 151557Z 20008KT 32/15 A2986 RMK A01 T03150148  RH  036%=      5-min Rain = 0
KSC1 151558Z 19012KT 32/15 A2986 RMK A01 T03160148  RH  036%=      5-min Rain = 0
KSC1 151559Z 20013G18KT 32/14 A2986 RMK A01 T03160144  RH  035%=      5-min Rain = 0
KSC1 151600Z 19010KT 31/14 A2986 RMK A01 T03130142  RH  035%=      5-min Rain = 0
KSC1 151601Z 20010KT 31/14 A2986 RMK A01 T03110144  RH  036%=      5-min Rain = 0
KSC1 151602Z 18012G17KT 31/15 A2986 RMK A01 T03120145  RH  036%=      5-min Rain = 0
KSC1 151603Z 19012KT 31/14 A2986 RMK A01 T03120144  RH  036%=      5-min Rain = 0
KSC1 151604Z 19013KT 31/15 A2986 RMK A01 T03130145  RH  036%=      5-min Rain = 0
KSC1 151605Z 20011G16KT 31/15 A2986 RMK A01 T03130145  RH  036%=      5-min Rain = 0
KSC1 151606Z 19012KT 31/15 A2986 RMK A01 T03130145  RH  036%=      5-min Rain = 0
KSC1 151607Z 20009KT 31/14 A2986 RMK A01 T03140144  RH  036%=      5-min Rain = 0
KSC1 151608Z 21011KT 32/15 A2986 RMK A01 T03150148  RH  036%=      5-min Rain = 0
KSC1 151609Z 21009KT 32/15 A2986 RMK A01 T03180147  RH  036%=      5-min Rain = 0
KSC1 151610Z 21009KT 32/14 A2986 RMK A01 T03180142  RH  034%=      5-min Rain = 0
KSC1 151611Z 19010KT 32/15 A2986 RMK A01 T03170147  RH  036%=      5-min Rain = 0
KSC1 151612Z 19011KT 32/15 A2986 RMK A01 T03190148  RH  036%=      5-min Rain = 0
KSC1 151613Z 19013KT 32/15 A2986 RMK A01 T03200147  RH  035%=      5-min Rain = 0
KSC1 151614Z 20011KT 32/15 A2986 RMK A01 T03180147  RH  035%=      5-min Rain = 0
KSC1 151615Z 19012KT 32/15 A2986 RMK A01 T03180147  RH  035%=      5-min Rain = 0
KSC1 151616Z 19012KT 32/15 A2986 RMK A01 T03180147  RH  036%=      5-min Rain = 0
KSC1 151617Z 21010KT 32/15 A2986 RMK A01 T03180148  RH  036%=      5-min Rain = 0
KSC1 151618Z 18012KT 32/15 A2986 RMK A01 T03190149  RH  036%=      5-min Rain = 0
KSC1 151619Z 19012KT 32/15 A2986 RMK A01 T03210146  RH  035%=      5-min Rain = 0
KSC1 151620Z 18010KT 32/15 A2986 RMK A01 T03180147  RH  036%=      5-min Rain = 0
KSC1 151621Z 18010KT 32/15 A2986 RMK A01 T03190151  RH  036%=      5-min Rain = 0
KSC1 151622Z 19013KT 32/15 A2986 RMK A01 T03230150  RH  035%=      5-min Rain = 0
KSC1 151623Z 19013KT 32/15 A2986 RMK A01 T03240148  RH  035%=      5-min Rain = 0
KSC1 151624Z 19011KT 32/15 A2986 RMK A01 T03210145  RH  035%=      5-min Rain = 0
KSC1 151625Z 18009KT 32/15 A2986 RMK A01 T03180147  RH  036%=      5-min Rain = 0
KSC1 151626Z 19011KT 32/15 A2986 RMK A01 T03190150  RH  036%=      5-min Rain = 0
KSC1 151627Z 19011KT 32/15 A2986 RMK A01 T03210148  RH  035%=      5-min Rain = 0
KSC1 151628Z 20012KT 32/15 A2986 RMK A01 T03210148  RH  035%=      5-min Rain = 0
KSC1 151629Z 20010KT 32/15 A2986 RMK A01 T03210148  RH  035%=      5-min Rain = 0
KSC1 151630Z 19009KT 32/15 A2986 RMK A01 T03220150  RH  035%=      5-min Rain = 0
KSC1 151631Z 18011G16KT 33/15 A2986 RMK A01 T03250149  RH  035%=      5-min Rain = 0
KSC1 151632Z 18011KT 33/15 A2986 RMK A01 T03250148  RH  034%=      5-min Rain = 0
KSC1 151633Z 19014KT 33/15 A2986 RMK A01 T03250149  RH  035%=      5-min Rain = 0
KSC1 151634Z 19012KT 32/15 A2986 RMK A01 T03240148  RH  035%=      5-min Rain = 0
KSC1 151635Z 19013KT 32/15 A2986 RMK A01 T03230148  RH  035%=      5-min Rain = 0
KSC1 151636Z 19010KT 32/15 A2985 RMK A01 T03230149  RH  035%=      5-min Rain = 0
KSC1 151637Z 19008KT 33/15 A2986 RMK A01 T03250150  RH  035%=      5-min Rain = 0
KSC1 151638Z 20008KT 33/15 A2986 RMK A01 T03290152  RH  035%=      5-min Rain = 0
KSC1 151639Z 19008KT 33/15 A2986 RMK A01 T03310151  RH  034%=      5-min Rain = 0
KSC1 151640Z 20007KT 33/15 A2985 RMK A01 T03310151  RH  034%=      5-min Rain = 0
KSC1 151641Z 17010KT 33/15 A2985 RMK A01 T03310152  RH  034%=      5-min Rain = 0
KSC1 151642Z 18012KT 33/15 A2985 RMK A01 T03330151  RH  033%=      5-min Rain = 0
KSC1 151643Z 19012KT 33/15 A2985 RMK A01 T03340148  RH  033%=      5-min Rain = 0
KSC1 151644Z 19012KT 34/15 A2985 RMK A01 T03350149  RH  033%=      5-min Rain = 0
KSC1 151645Z 20013G18KT 34/15 A2985 RMK A01 T03350147  RH  032%=      5-min Rain = 0
KSC1 151646Z 21011KT 33/15 A2985 RMK A01 T03340146  RH  032%=      5-min Rain = 0
KSC1 151647Z 22009KT 33/15 A2985 RMK A01 T03340146  RH  032%=      5-min Rain = 0
KSC1 151648Z 19007KT 34/15 A2985 RMK A01 T03360148  RH  032%=      5-min Rain = 0
KSC1 151649Z 20010G17KT 34/15 A2985 RMK A01 T03390149  RH  032%=      5-min Rain = 0
KSC1 151650Z 20013KT 34/15 A2985 RMK A01 T03420146  RH  031%=      5-min Rain = 0
KSC1 151651Z 19012G17KT 34/15 A2985 RMK A01 T03420145  RH  031%=      5-min Rain = 0
KSC1 151652Z 21013KT 34/14 A2985 RMK A01 T03410142  RH  030%=      5-min Rain = 0
KSC1 151653Z 20011KT 34/14 A2985 RMK A01 T03410140  RH  030%=      5-min Rain = 0
KSC1 151654Z 20014KT 34/14 A2985 RMK A01 T03420136  RH  029%=      5-min Rain = 0
KSC1 151655Z 21011KT 34/14 A2985 RMK A01 T03400135  RH  029%=      5-min Rain = 0
KSC1 151656Z 22012G17KT 34/14 A2985 RMK A01 T03410138  RH  030%=      5-min Rain = 0
KSC1 151657Z 23010KT 34/13 A2985 RMK A01 T03420132  RH  028%=      5-min Rain = 0
KSC1 151658Z 23006G13KT 34/14 A2985 RMK A01 T03440135  RH  029%=      5-min Rain = 0
KSC1 151659Z 22010KT 35/14 A2985 RMK A01 T03460138  RH  029%=      5-min Rain = 0
KSC1 151700Z 19009KT 35/14 A2985 RMK A01 T03460138  RH  029%=      5-min Rain = 0
KSC1 151701Z 19010KT 35/14 A2985 RMK A01 T03450139  RH  029%=      5-min Rain = 0
KSC1 151702Z 20013G18KT 35/14 A2985 RMK A01 T03460141  RH  029%=      5-min Rain = 0
KSC1 151703Z 21009KT 35/14 A2985 RMK A01 T03470141  RH  029%=      5-min Rain = 0
KSC1 151704Z 20008KT 35/14 A2985 RMK A01 T03490142  RH  029%=      5-min Rain = 0
KSC1 151705Z 19010KT 35/14 A2985 RMK A01 T03500140  RH  028%=      5-min Rain = 0
KSC1 151706Z 21011KT 35/14 A2985 RMK A01 T03500137  RH  028%=      5-min Rain = 0
KSC1 151707Z 20010KT 35/14 A2985 RMK A01 T03500136  RH  028%=      5-min Rain = 0
KSC1 151708Z 19012KT 35/14 A2985 RMK A01 T03490137  RH  028%=      5-min Rain = 0
KSC1 151709Z 20014KT 35/13 A2985 RMK A01 T03510134  RH  027%=      5-min Rain = 0
KSC1 151710Z 20014KT 35/13 A2985 RMK A01 T03480130  RH  027%=      5-min Rain = 0
KSC1 151711Z 22012G17KT 35/13 A2985 RMK A01 T03470133  RH  028%=      5-min Rain = 0
KSC1 151712Z 21014KT 35/13 A2985 RMK A01 T03490130  RH  027%=      5-min Rain = 0
KSC1 151713Z 23010KT 35/13 A2985 RMK A01 T03480129  RH  027%=      5-min Rain = 0
KSC1 151714Z 24008KT 35/13 A2985 RMK A01 T03480129  RH  027%=      5-min Rain = 0
KSC1 151715Z 23008KT 35/13 A2985 RMK A01 T03490131  RH  027%=      5-min Rain = 0
KSC1 151716Z 23013KT 35/13 A2985 RMK A01 T03510134  RH  027%=      5-min Rain = 0
KSC1 151717Z 23015G20KT 35/13 A2985 RMK A01 T03520131  RH  027%=      5-min Rain = 0
KSC1 151718Z 24013KT 35/13 A2985 RMK A01 T03490129  RH  027%=      5-min Rain = 0
KSC1 151719Z 25011KT 35/13 A2985 RMK A01 T03470132  RH  027%=      5-min Rain = 0
KSC1 151720Z 25010KT 35/14 A2985 RMK A01 T03470135  RH  028%=      5-min Rain = 0
KSC1 151721Z 22014KT 35/13 A2985 RMK A01 T03500134  RH  027%=      5-min Rain = 0
KSC1 151722Z 21013KT 35/13 A2985 RMK A01 T03510132  RH  027%=      5-min Rain = 0
KSC1 151723Z 22010KT 35/13 A2985 RMK A01 T03510131  RH  027%=      5-min Rain = 0
KSC1 151724Z 25008KT 35/13 A2985 RMK A01 T03510133  RH  027%=      5-min Rain = 0
KSC1 151725Z 24008KT 35/13 A2985 RMK A01 T03520132  RH  027%=      5-min Rain = 0
KSC1 151726Z 20005KT 35/13 A2985 RMK A01 T03510132  RH  027%=      5-min Rain = 0
KSC1 151727Z 19011G16KT 35/14 A2985 RMK A01 T03520136  RH  027%=      5-min Rain = 0
KSC1 151728Z 22014KT 35/14 A2985 RMK A01 T03540138  RH  027%=      5-min Rain = 0
KSC1 151729Z 23011KT 36/14 A2985 RMK A01 T03560135  RH  027%=      5-min Rain = 0
KSC1 151730Z 22010KT 35/13 A2985 RMK A01 T03540133  RH  027%=      5-min Rain = 0
KSC1 151731Z 21006KT 35/13 A2985 RMK A01 T03520134  RH  027%=      5-min Rain = 0
KSC1 151732Z 22009G16KT 35/14 A2985 RMK A01 T03530138  RH  028%=      5-min Rain = 0
KSC1 151733Z 23013KT 36/14 A2985 RMK A01 T03560135  RH  027%=      5-min Rain = 0
KSC1 151734Z 23008KT 36/14 A2985 RMK A01 T03550135  RH  027%=      5-min Rain = 0
KSC1 151735Z 21012KT 36/14 A2985 RMK A01 T03550135  RH  027%=      5-min Rain = 0
KSC1 151736Z 23010KT 36/14 A2985 RMK A01 T03550135  RH  027%=      5-min Rain = 0
KSC1 151737Z 22010KT 36/13 A2985 RMK A01 T03550132  RH  026%=      5-min Rain = 0
KSC1 151738Z 22011KT 36/14 A2985 RMK A01 T03550135  RH  027%=      5-min Rain = 0
KSC1 151739Z 20011KT 36/14 A2985 RMK A01 T03570136  RH  027%=      5-min Rain = 0
KSC1 151740Z 21009KT 36/13 A2985 RMK A01 T03560131  RH  026%=      5-min Rain = 0
KSC1 151741Z 22009KT 35/13 A2985 RMK A01 T03540134  RH  027%=      5-min Rain = 0
KSC1 151742Z 22010KT 36/14 A2984 RMK A01 T03550135  RH  027%=      5-min Rain = 0
KSC1 151743Z 20007G12KT 36/14 A2984 RMK A01 T03560138  RH  027%=      5-min Rain = 0
KSC1 151744Z 20013G18KT 36/14 A2984 RMK A01 T03580135  RH  026%=      5-min Rain = 0
KSC1 151745Z 20013G18KT 36/13 A2984 RMK A01 T03570132  RH  026%=      5-min Rain = 0
KSC1 151746Z 20011KT 36/14 A2984 RMK A01 T03560135  RH  026%=      5-min Rain = 0
KSC1 151747Z 20010KT 36/13 A2984 RMK A01 T03570133  RH  026%=      5-min Rain = 0
KSC1 151748Z 21008KT 36/13 A2984 RMK A01 T03570132  RH  026%=      5-min Rain = 0
KSC1 151749Z 21013G18KT 36/13 A2984 RMK A01 T03570134  RH  026%=      5-min Rain = 0
KSC1 151750Z 20013KT 36/13 A2984 RMK A01 T03580132  RH  026%=      5-min Rain = 0
KSC1 151751Z 20011KT 36/13 A2984 RMK A01 T03580130  RH  026%=      5-min Rain = 0
KSC1 151752Z 19008KT 36/13 A2984 RMK A01 T03570131  RH  026%=      5-min Rain = 0
KSC1 151753Z 20008G13KT 36/13 A2984 RMK A01 T03570134  RH  026%=      5-min Rain = 0
KSC1 151754Z 20007KT 36/14 A2984 RMK A01 T03620139  RH  026%=      5-min Rain = 0
KSC1 151755Z 20009G14KT 37/14 A2984 RMK A01 T03650136  RH  025%=      5-min Rain = 0
KSC1 151756Z 21012KT 37/13 A2984 RMK A01 T03650132  RH  025%=      5-min Rain = 0
KSC1 151757Z 23012G17KT 36/13 A2984 RMK A01 T03620130  RH  025%=      5-min Rain = 0
KSC1 151758Z 22011G16KT 36/13 A2984 RMK A01 T03600128  RH  025%=      5-min Rain = 0
KSC1 151759Z 22008KT 36/13 A2984 RMK A01 T03590130  RH  025%=      5-min Rain = 0
KSC1 151800Z 19007KT 36/13 A2984 RMK A01 T03600133  RH  026%=      5-min Rain = 0
KSC1 151801Z 20010G19KT 36/14 A2984 RMK A01 T03640137  RH  026%=      5-min Rain = 0
KSC1 151802Z 20013G18KT 37/13 A2983 RMK A01 T03660132  RH  025%=      5-min Rain = 0
KSC1 151803Z 21013KT 37/13 A2984 RMK A01 T03650130  RH  024%=      5-min Rain = 0
KSC1 151804Z 21009KT 36/13 A2984 RMK A01 T03640130  RH  025%=      5-min Rain = 0
KSC1 151805Z 21007KT 36/13 A2983 RMK A01 T03640130  RH  025%=      5-min Rain = 0
KSC1 151806Z 22006KT 36/13 A2983 RMK A01 T03640129  RH  024%=      5-min Rain = 0
KSC1 151807Z 21008KT 37/13 A2983 RMK A01 T03650133  RH  025%=      5-min Rain = 0
KSC1 151808Z 21012KT 37/13 A2983 RMK A01 T03670131  RH  024%=      5-min Rain = 0
KSC1 151809Z 19012KT 37/13 A2983 RMK A01 T03680129  RH  024%=      5-min Rain = 0
KSC1 151810Z 20009KT 37/13 A2983 RMK A01 T03680130  RH  024%=      5-min Rain = 0
KSC1 151811Z 19012KT 37/13 A2983 RMK A01 T03680126  RH  024%=      5-min Rain = 0
KSC1 151812Z 18013KT 37/13 A2983 RMK A01 T03650128  RH  024%=      5-min Rain = 0
KSC1 151813Z 19009KT 37/13 A2983 RMK A01 T03670127  RH  024%=      5-min Rain = 0
KSC1 151814Z 20007KT 37/12 A2983 RMK A01 T03680124  RH  023%=      5-min Rain = 0
KSC1 151815Z 21012KT 37/13 A2983 RMK A01 T03690125  RH  023%=      5-min Rain = 0
KSC1 151816Z 23010KT 37/12 A2983 RMK A01 T03700121  RH  022%=      5-min Rain = 0
KSC1 151817Z 20010KT 37/12 A2983 RMK A01 T03700122  RH  023%=      5-min Rain = 0
KSC1 151818Z 20009KT 37/12 A2983 RMK A01 T03690122  RH  023%=      5-min Rain = 0
KSC1 151819Z 20010KT 37/13 A2983 RMK A01 T03670125  RH  023%=      5-min Rain = 0
KSC1 151820Z 19011G16KT 37/13 A2983 RMK A01 T03670130  RH  024%=      5-min Rain = 0
KSC1 151821Z 19011KT 37/13 A2983 RMK A01 T03700132  RH  024%=      5-min Rain = 0
KSC1 151822Z 19013KT 37/13 A2983 RMK A01 T03720130  RH  024%=      5-min Rain = 0
KSC1 151823Z 18013KT 37/13 A2983 RMK A01 T03710129  RH  023%=      5-min Rain = 0
KSC1 151824Z 19012KT 37/13 A2983 RMK A01 T03700125  RH  023%=      5-min Rain = 0
KSC1 151825Z 18009KT 37/13 A2983 RMK A01 T03690126  RH  023%=      5-min Rain = 0
KSC1 151826Z 19008KT 37/13 A2983 RMK A01 T03690125  RH  023%=      5-min Rain = 0
KSC1 151827Z 20009KT 37/13 A2983 RMK A01 T03690127  RH  023%=      5-min Rain = 0
KSC1 151828Z 18009G14KT 37/13 A2983 RMK A01 T03710129  RH  024%=      5-min Rain = 0
KSC1 151829Z 20010KT 37/13 A2983 RMK A01 T03740129  RH  023%=      5-min Rain = 0
KSC1 151830Z 19009KT 38/13 A2983 RMK A01 T03750126  RH  023%=      5-min Rain = 0
KSC1 151831Z 20011KT 38/13 A2983 RMK A01 T03750128  RH  023%=      5-min Rain = 0
KSC1 151832Z 17012KT 38/13 A2983 RMK A01 T03750129  RH  023%=      5-min Rain = 0
KSC1 151833Z 20014KT 38/13 A2983 RMK A01 T03760125  RH  022%=      5-min Rain = 0
KSC1 151834Z 21011KT 37/12 A2983 RMK A01 T03740121  RH  022%=      5-min Rain = 0
KSC1 151835Z 22008KT 37/12 A2983 RMK A01 T03720121  RH  022%=      5-min Rain = 0
KSC1 151836Z 23006G11KT 37/13 A2983 RMK A01 T03720127  RH  023%=      5-min Rain = 0
KSC1 151837Z 20013KT 38/13 A2983 RMK A01 T03760128  RH  023%=      5-min Rain = 0
KSC1 151838Z 17011KT 38/13 A2982 RMK A01 T03780129  RH  023%=      5-min Rain = 0
KSC1 151839Z 20012KT 38/13 A2982 RMK A01 T03790125  RH  022%=      5-min Rain = 0
KSC1 151840Z 19012KT 38/12 A2983 RMK A01 T03770123  RH  022%=      5-min Rain = 0
KSC1 151841Z 20011KT 37/12 A2983 RMK A01 T03740120  RH  022%=      5-min Rain = 0
KSC1 151842Z 20008KT 37/12 A2982 RMK A01 T03730120  RH  022%=      5-min Rain = 0
KSC1 151843Z 21009KT 37/12 A2982 RMK A01 T03720119  RH  022%=      5-min Rain = 0
KSC1 151844Z 20011KT 37/12 A2982 RMK A01 T03710122  RH  022%=      5-min Rain = 0
KSC1 151845Z 21010G16KT 37/12 A2982 RMK A01 T03740124  RH  022%=      5-min Rain = 0
KSC1 151846Z 20013KT 38/12 A2982 RMK A01 T03780121  RH  022%=      5-min Rain = 0
KSC1 151847Z 19007G12KT 38/12 A2982 RMK A01 T03760116  RH  021%=      5-min Rain = 0
KSC1 151848Z 24010KT 37/12 A2982 RMK A01 T03740119  RH  022%=      5-min Rain = 0
KSC1 151849Z 22007KT 37/12 A2982 RMK A01 T03740122  RH  022%=      5-min Rain = 0
KSC1 151850Z 22012KT 38/13 A2982 RMK A01 T03770125  RH  022%=      5-min Rain = 0
KSC1 151851Z 22013KT 38/12 A2982 RMK A01 T03780124  RH  022%=      5-min Rain = 0
KSC1 151852Z 21012KT 38/13 A2982 RMK A01 T03770125  RH  022%=      5-min Rain = 0
KSC1 151853Z 19011KT 38/13 A2982 RMK A01 T03770125  RH  022%=      5-min Rain = 0
KSC1 151854Z 21008KT 38/12 A2982 RMK A01 T03770123  RH  022%=      5-min Rain = 0
KSC1 151855Z 21006KT 38/13 A2982 RMK A01 T03770129  RH  023%=      5-min Rain = 0
KSC1 151856Z 20005KT 38/13 A2982 RMK A01 T03810127  RH  022%=      5-min Rain = 0
KSC1 151857Z 21007KT 38/13 A2982 RMK A01 T03840130  RH  022%=      5-min Rain = 0
KSC1 151858Z 22010KT 39/13 A2982 RMK A01 T03880125  RH  021%=      5-min Rain = 0
KSC1 151859Z 21006KT 38/12 A2982 RMK A01 T03830123  RH  021%=      5-min Rain = 0
KSC1 151900Z 18009KT 38/13 A2981 RMK A01 T03810126  RH  022%=      5-min Rain = 0
KSC1 151901Z 18010KT 38/13 A2981 RMK A01 T03820126  RH  022%=      5-min Rain = 0
KSC1 151902Z 18008KT 38/13 A2981 RMK A01 T03820125  RH  022%=      5-min Rain = 0
KSC1 151903Z 17008KT 38/12 A2981 RMK A01 T03830124  RH  021%=      5-min Rain = 0
KSC1 151904Z 19012G17KT 38/12 A2981 RMK A01 T03820124  RH  021%=      5-min Rain = 0
KSC1 151905Z 19009KT 38/12 A2981 RMK A01 T03820117  RH  020%=      5-min Rain = 0
KSC1 151906Z 21007KT 38/12 A2981 RMK A01 T03830120  RH  021%=      5-min Rain = 0
KSC1 151907Z 21010KT 38/12 A2981 RMK A01 T03840118  RH  020%=      5-min Rain = 0
KSC1 151908Z 21010KT 39/12 A2981 RMK A01 T03860119  RH  020%=      5-min Rain = 0
KSC1 151909Z 21008KT 39/11 A2981 RMK A01 T03870113  RH  019%=      5-min Rain = 0
KSC1 151910Z 20009KT 39/12 A2981 RMK A01 T03850119  RH  020%=      5-min Rain = 0
KSC1 151911Z 18015KT 39/12 A2981 RMK A01 T03850121  RH  021%=      5-min Rain = 0
KSC1 151912Z 18014KT 38/12 A2981 RMK A01 T03840116  RH  020%=      5-min Rain = 0
KSC1 151913Z 18011G16KT 38/12 A2981 RMK A01 T03810118  RH  021%=      5-min Rain = 0
KSC1 151914Z 18013KT 38/11 A2981 RMK A01 T03800114  RH  020%=      5-min Rain = 0
KSC1 151915Z 19014KT 38/11 A2981 RMK A01 T03790113  RH  020%=      5-min Rain = 0
KSC1 151916Z 18010KT 38/11 A2981 RMK A01 T03790113  RH  020%=      5-min Rain = 0
KSC1 151917Z 17011KT 38/11 A2981 RMK A01 T03790113  RH  020%=      5-min Rain = 0
KSC1 151918Z 17012KT 38/12 A2981 RMK A01 T03800115  RH  020%=      5-min Rain = 0
KSC1 151919Z 19007KT 38/11 A2981 RMK A01 T03800112  RH  020%=      5-min Rain = 0
KSC1 151920Z 20006KT 38/12 A2981 RMK A01 T03780115  RH  021%=      5-min Rain = 0
KSC1 151921Z 19006KT 38/12 A2981 RMK A01 T03790123  RH  022%=      5-min Rain = 0
KSC1 151922Z 19010G20KT 38/12 A2981 RMK A01 T03830118  RH  021%=      5-min Rain = 0
KSC1 151923Z 21012G18KT 38/10 A2981 RMK A01 T03830101  RH  018%=      5-min Rain = 0
KSC1 151924Z 21009KT 38/10 A2981 RMK A01 T03810098  RH  018%=      5-min Rain = 0
KSC1 151925Z 21010KT 38/10 A2981 RMK A01 T03840100  RH  018%=      5-min Rain = 0
KSC1 151926Z 20012KT 39/10 A2981 RMK A01 T03870097  RH  017%=      5-min Rain = 0
KSC1 151927Z 20012KT 39/10 A2981 RMK A01 T03870096  RH  017%=      5-min Rain = 0
KSC1 151928Z 21011G17KT 39/10 A2981 RMK A01 T03870097  RH  017%=      5-min Rain = 0
KSC1 151929Z 22010KT 39/09 A2981 RMK A01 T03870094  RH  017%=      5-min Rain = 0
KSC1 151930Z 21010KT 39/10 A2981 RMK A01 T03860095  RH  017%=      5-min Rain = 0
KSC1 151931Z 22010KT 39/10 A2981 RMK A01 T03870096  RH  017%=      5-min Rain = 0
KSC1 151932Z 24009KT 39/10 A2981 RMK A01 T03880099  RH  018%=      5-min Rain = 0
KSC1 151933Z 25011KT 39/10 A298 RMK A01 T03890095  RH  017%=      5-min Rain = 0
KSC1 151934Z 25011KT 39/10 A298 RMK A01 T03880095  RH  017%=      5-min Rain = 0
KSC1 151935Z 23008KT 39/10 A298 RMK A01 T03860096  RH  017%=      5-min Rain = 0
KSC1 151936Z 21007G12KT 39/10 A298 RMK A01 T03880098  RH  018%=      5-min Rain = 0
KSC1 151937Z 23009KT 39/10 A298 RMK A01 T03900097  RH  017%=      5-min Rain = 0
KSC1 151938Z 20011KT 39/09 A298 RMK A01 T03910090  RH  016%=      5-min Rain = 0
KSC1 151939Z 23012KT 39/09 A298 RMK A01 T03880092  RH  017%=      5-min Rain = 0
KSC1 151940Z 23009G15KT 39/09 A298 RMK A01 T03880090  RH  017%=      5-min Rain = 0
KSC1 151941Z 24009KT 39/09 A298 RMK A01 T03910088  RH  016%=      5-min Rain = 0
KSC1 151942Z 23010G18KT 39/09 A298 RMK A01 T03920089  RH  016%=      5-min Rain = 0
KSC1 151943Z 23010KT 39/09 A298 RMK A01 T03920086  RH  016%=      5-min Rain = 0
KSC1 151944Z 24011KT 39/08 A298 RMK A01 T03920084  RH  016%=      5-min Rain = 0
KSC1 151945Z 22008KT 39/08 A298 RMK A01 T03890084  RH  016%=      5-min Rain = 0
KSC1 151946Z 24010KT 39/09 A298 RMK A01 T03890089  RH  016%=      5-min Rain = 0
KSC1 151947Z 22011KT 39/09 A298 RMK A01 T03910089  RH  016%=      5-min Rain = 0
KSC1 151948Z 20009KT 39/09 A298 RMK A01 T03910090  RH  016%=      5-min Rain = 0
KSC1 151949Z 20007KT 39/09 A298 RMK A01 T03920094  RH  017%=      5-min Rain = 0
KSC1 151950Z 21008KT 39/09 A298 RMK A01 T03940090  RH  016%=      5-min Rain = 0
KSC1 151951Z 17009KT 39/09 A298 RMK A01 T03930090  RH  016%=      5-min Rain = 0
KSC1 151952Z 16008KT 39/09 A298 RMK A01 T03910088  RH  016%=      5-min Rain = 0
KSC1 151953Z 14004KT 39/09 A298 RMK A01 T03880086  RH  016%=      5-min Rain = 0
KSC1 151954Z 16007KT 39/09 A298 RMK A01 T03880091  RH  017%=      5-min Rain = 0
KSC1 151955Z 20009G14KT 39/09 A298 RMK A01 T03900093  RH  017%=      5-min Rain = 0
KSC1 151956Z 19010KT 39/09 A298 RMK A01 T03920086  RH  016%=      5-min Rain = 0
KSC1 151957Z 20012KT 39/08 A298 RMK A01 T03940084  RH  015%=      5-min Rain = 0
KSC1 151958Z 21013KT 39/08 A298 RMK A01 T03920078  RH  015%=      5-min Rain = 0
KSC1 151959Z 20010KT 39/08 A298 RMK A01 T03890078  RH  015%=      5-min Rain = 0
KSC1 152000Z 15008KT 39/10 A298 RMK A01 T03880099  RH  018%=      5-min Rain = 0
KSC1 152001Z 17009KT 39/13 A2979 RMK A01 T03910129  RH  021%=      5-min Rain = 0
KSC1 152002Z 21013G18KT 39/11 A2979 RMK A01 T03910114  RH  019%=      5-min Rain = 0
KSC1 152003Z 20013KT 39/14 A2979 RMK A01 T03910135  RH  022%=      5-min Rain = 0
KSC1 152004Z 17015KT 39/15 A2979 RMK A01 T03900145  RH  024%=      5-min Rain = 0
KSC1 152005Z 17011G17KT 38/15 A2979 RMK A01 T03840149  RH  025%=      5-min Rain = 0
KSC1 152006Z 16008G15KT 38/16 A2979 RMK A01 T03830159  RH  027%=      5-min Rain = 0
KSC1 152007Z 17012G18KT 39/15 A2979 RMK A01 T03850152  RH  025%=      5-min Rain = 0
KSC1 152008Z 21012G17KT 39/13 A2979 RMK A01 T03880134  RH  022%=      5-min Rain = 0
KSC1 152009Z 18011KT 39/11 A2979 RMK A01 T03910112  RH  019%=      5-min Rain = 0
KSC1 152010Z 18010G16KT 39/14 A2979 RMK A01 T03910143  RH  023%=      5-min Rain = 0
KSC1 152011Z 18016G21KT 39/16 A2979 RMK A01 T03890158  RH  026%=      5-min Rain = 0
KSC1 152012Z 17015KT 38/16 A2979 RMK A01 T03830162  RH  027%=      5-min Rain = 0
KSC1 152013Z 17018KT 38/16 A2979 RMK A01 T03810164  RH  028%=      5-min Rain = 0
KSC1 152014Z 16013KT 38/17 A2979 RMK A01 T03780165  RH  029%=      5-min Rain = 0
KSC1 152015Z 16013KT 38/17 A2979 RMK A01 T03770167  RH  029%=      5-min Rain = 0
KSC1 152016Z 16016KT 38/17 A2979 RMK A01 T03790165  RH  028%=      5-min Rain = 0
KSC1 152017Z 17017KT 38/17 A2979 RMK A01 T03780166  RH  029%=      5-min Rain = 0
KSC1 152018Z 16015G20KT 38/17 A2979 RMK A01 T03750169  RH  030%=      5-min Rain = 0
KSC1 152019Z 15018G23KT 37/17 A2979 RMK A01 T03730169  RH  030%=      5-min Rain = 0
KSC1 152020Z 16018KT 37/17 A2979 RMK A01 T03720168  RH  030%=      5-min Rain = 0
KSC1 152021Z 16015G20KT 37/17 A2979 RMK A01 T03720167  RH  030%=      5-min Rain = 0
KSC1 152022Z 16017KT 37/17 A2979 RMK A01 T03730169  RH  030%=      5-min Rain = 0
KSC1 152023Z 16018KT 37/17 A2979 RMK A01 T03740171  RH  030%=      5-min Rain = 0
KSC1 152024Z 15012KT 37/17 A2979 RMK A01 T03730173  RH  031%=      5-min Rain = 0
KSC1 152025Z 15015KT 37/17 A2979 RMK A01 T03730173  RH  031%=      5-min Rain = 0
KSC1 152026Z 17014G19KT 37/17 A2979 RMK A01 T03730174  RH  031%=      5-min Rain = 0
KSC1 152027Z 18016G22KT 37/17 A2979 RMK A01 T03740174  RH  031%=      5-min Rain = 0
KSC1 152028Z 17013G18KT 37/18 A2979 RMK A01 T03740176  RH  031%=      5-min Rain = 0
KSC1 152029Z 17015KT 37/17 A2979 RMK A01 T03740174  RH  031%=      5-min Rain = 0
KSC1 152030Z 16015KT 37/18 A2979 RMK A01 T03740175  RH  031%=      5-min Rain = 0
KSC1 152031Z 17015KT 37/18 A2979 RMK A01 T03740178  RH  032%=      5-min Rain = 0
KSC1 152032Z 17014KT 37/18 A2979 RMK A01 T03740178  RH  032%=      5-min Rain = 0
KSC1 152033Z 17016KT 37/18 A2979 RMK A01 T03740177  RH  031%=      5-min Rain = 0
KSC1 152034Z 16015KT 37/17 A2979 RMK A01 T03710174  RH  031%=      5-min Rain = 0
KSC1 152035Z 16017KT 37/18 A2979 RMK A01 T03700175  RH  032%=      5-min Rain = 0
KSC1 152036Z 15017G23KT 37/18 A2979 RMK A01 T03700175  RH  032%=      5-min Rain = 0
KSC1 152037Z 16015KT 37/17 A2979 RMK A01 T03690174  RH  032%=      5-min Rain = 0
KSC1 152038Z 17017KT 37/18 A2979 RMK A01 T03690175  RH  032%=      5-min Rain = 0
KSC1 152039Z 17016KT 37/18 A2979 RMK A01 T03700175  RH  032%=      5-min Rain = 0
KSC1 152040Z 16014KT 37/17 A2979 RMK A01 T03690174  RH  032%=      5-min Rain = 0
KSC1 152041Z 17015KT 37/17 A2979 RMK A01 T03700174  RH  032%=      5-min Rain = 0
KSC1 152042Z 17014KT 37/17 A2979 RMK A01 T03710173  RH  031%=      5-min Rain = 0
KSC1 152043Z 17012G18KT 37/17 A2979 RMK A01 T03710174  RH  031%=      5-min Rain = 0
KSC1 152044Z 17015KT 37/17 A2979 RMK A01 T03730173  RH  031%=      5-min Rain = 0
KSC1 152045Z 18011KT 37/17 A2979 RMK A01 T03730171  RH  030%=      5-min Rain = 0
KSC1 152046Z 16014KT 37/17 A2979 RMK A01 T03740171  RH  030%=      5-min Rain = 0
KSC1 152047Z 16015G22KT 38/17 A2979 RMK A01 T03760170  RH  030%=      5-min Rain = 0
KSC1 152048Z 16016KT 38/17 A2978 RMK A01 T03760172  RH  030%=      5-min Rain = 0
KSC1 152049Z 15016G21KT 38/17 A2979 RMK A01 T03750172  RH  030%=      5-min Rain = 0
KSC1 152050Z 15015G20KT 38/17 A2978 RMK A01 T03750172  RH  030%=      5-min Rain = 0
KSC1 152051Z 16012KT 37/17 A2978 RMK A01 T03720173  RH  031%=      5-min Rain = 0
KSC1 152052Z 14016KT 37/17 A2978 RMK A01 T03730174  RH  031%=      5-min Rain = 0
KSC1 152053Z 15019KT 37/17 A2978 RMK A01 T03720172  RH  031%=      5-min Rain = 0
KSC1 152054Z 15017G22KT 37/17 A2978 RMK A01 T03690172  RH  031%=      5-min Rain = 0
KSC1 152055Z 15019KT 37/17 A2978 RMK A01 T03690174  RH  032%=      5-min Rain = 0
KSC1 152056Z 13014G20KT 37/18 A2978 RMK A01 T03690176  RH  032%=      5-min Rain = 0
KSC1 152057Z 15017G23KT 37/18 A2978 RMK A01 T03710179  RH  032%=      5-min Rain = 0
KSC1 152058Z 16016KT 37/18 A2978 RMK A01 T03720178  RH  032%=      5-min Rain = 0
KSC1 152059Z 17015KT 37/18 A2978 RMK A01 T03730177  RH  032%=      5-min Rain = 0
KSC1 152100Z 17017G22KT 37/17 A2978 RMK A01 T03740173  RH  031%=      5-min Rain = 0
KSC1 152101Z 18017KT 37/17 A2978 RMK A01 T03710173  RH  031%=      5-min Rain = 0
KSC1 152102Z 16015G20KT 37/17 A2978 RMK A01 T03700173  RH  031%=      5-min Rain = 0
KSC1 152103Z 17015G21KT 37/17 A2978 RMK A01 T03730171  RH  031%=      5-min Rain = 0
KSC1 152104Z 17016KT 37/17 A2978 RMK A01 T03740172  RH  030%=      5-min Rain = 0
KSC1 152105Z 17015G21KT 37/18 A2978 RMK A01 T03740175  RH  031%=      5-min Rain = 0
KSC1 152106Z 16014G19KT 38/18 A2978 RMK A01 T03750177  RH  031%=      5-min Rain = 0
KSC1 152107Z 15015KT 38/18 A2978 RMK A01 T03760175  RH  031%=      5-min Rain = 0
KSC1 152108Z 16014KT 38/17 A2978 RMK A01 T03760173  RH  030%=      5-min Rain = 0
KSC1 152109Z 17017G24KT 38/18 A2978 RMK A01 T03770176  RH  031%=      5-min Rain = 0
KSC1 152110Z 17018KT 38/18 A2978 RMK A01 T03760175  RH  031%=      5-min Rain = 0
KSC1 152111Z 16014KT 37/18 A2978 RMK A01 T03720175  RH  031%=      5-min Rain = 0
KSC1 152112Z 17013KT 37/18 A2978 RMK A01 T03710176  RH  032%=      5-min Rain = 0
KSC1 152113Z 16016G23KT 37/18 A2978 RMK A01 T03740175  RH  031%=      5-min Rain = 0
KSC1 152114Z 17020KT 38/17 A2978 RMK A01 T03750172  RH  030%=      5-min Rain = 0
KSC1 152115Z 17019KT 37/17 A2978 RMK A01 T03720171  RH  031%=      5-min Rain = 0
KSC1 152116Z 18017G22KT 37/17 A2978 RMK A01 T03690171  RH  031%=      5-min Rain = 0
KSC1 152117Z 18018KT 37/17 A2978 RMK A01 T03680173  RH  032%=      5-min Rain = 0
KSC1 152118Z 18015G20KT 37/17 A2978 RMK A01 T03680174  RH  032%=      5-min Rain = 0
KSC1 152119Z 17015KT 37/17 A2978 RMK A01 T03700174  RH  032%=      5-min Rain = 0
KSC1 152120Z 17017G22KT 37/18 A2978 RMK A01 T03700175  RH  032%=      5-min Rain = 0
KSC1 152121Z 18017KT 37/17 A2978 RMK A01 T03690174  RH  032%=      5-min Rain = 0
KSC1 152122Z 18019G24KT 37/17 A2978 RMK A01 T03700174  RH  032%=      5-min Rain = 0
KSC1 152123Z 18016KT 37/17 A2978 RMK A01 T03690173  RH  032%=      5-min Rain = 0
KSC1 152124Z 17017KT 37/17 A2978 RMK A01 T03670173  RH  032%=      5-min Rain = 0
KSC1 152125Z 16017KT 37/17 A2978 RMK A01 T03670174  RH  032%=      5-min Rain = 0
KSC1 152126Z 16013KT 37/17 A2978 RMK A01 T03660174  RH  032%=      5-min Rain = 0
KSC1 152127Z 15013KT 37/18 A2978 RMK A01 T03650175  RH  033%=      5-min Rain = 0
KSC1 152128Z 16015KT 37/18 A2978 RMK A01 T03650176  RH  033%=      5-min Rain = 0
KSC1 152129Z 17014KT 37/18 A2978 RMK A01 T03660175  RH  033%=      5-min Rain = 0
KSC1 152130Z 17015G21KT 37/18 A2978 RMK A01 T03660175  RH  033%=      5-min Rain = 0
KSC1 152131Z 17017KT 36/17 A2978 RMK A01 T03640172  RH  032%=      5-min Rain = 0
KSC1 152132Z 17014KT 36/17 A2978 RMK A01 T03600171  RH  033%=      5-min Rain = 0
KSC1 152133Z 17013G20KT 36/17 A2978 RMK A01 T03590173  RH  033%=      5-min Rain = 0
KSC1 152134Z 17015G20KT 36/17 A2978 RMK A01 T03580171  RH  033%=      5-min Rain = 0
KSC1 152135Z 17014KT 35/17 A2978 RMK A01 T03540172  RH  034%=      5-min Rain = 0
KSC1 152136Z 15013G18KT 35/17 A2978 RMK A01 T03530174  RH  035%=      5-min Rain = 0
KSC1 152137Z 15015G20KT 35/18 A2978 RMK A01 T03530175  RH  035%=      5-min Rain = 0
KSC1 152138Z 16014G20KT 35/18 A2978 RMK A01 T03530175  RH  035%=      5-min Rain = 0
KSC1 152139Z 16015KT 35/17 A2978 RMK A01 T03540174  RH  034%=      5-min Rain = 0
KSC1 152140Z 17013G18KT 36/17 A2978 RMK A01 T03570174  RH  034%=      5-min Rain = 0
KSC1 152141Z 16013G18KT 36/17 A2978 RMK A01 T03590172  RH  033%=      5-min Rain = 0
KSC1 152142Z 16011KT 36/17 A2978 RMK A01 T03590173  RH  033%=      5-min Rain = 0
KSC1 152143Z 17012G20KT 36/18 A2978 RMK A01 T03640176  RH  033%=      5-min Rain = 0
KSC1 152144Z 17016KT 37/18 A2978 RMK A01 T03670176  RH  033%=      5-min Rain = 0
KSC1 152145Z 16014KT 37/18 A2978 RMK A01 T03650177  RH  033%=      5-min Rain = 0
KSC1 152146Z 17013KT 36/18 A2978 RMK A01 T03630178  RH  034%=      5-min Rain = 0
KSC1 152147Z 16019KT 36/18 A2978 RMK A01 T03630176  RH  033%=      5-min Rain = 0
KSC1 152148Z 16018G23KT 36/18 A2978 RMK A01 T03600175  RH  033%=      5-min Rain = 0
KSC1 152149Z 17017KT 36/18 A2978 RMK A01 T03600176  RH  034%=      5-min Rain = 0
KSC1 152150Z 16016KT 36/18 A2977 RMK A01 T03590176  RH  034%=      5-min Rain = 0
KSC1 152151Z 17016G21KT 36/18 A2977 RMK A01 T03590176  RH  034%=      5-min Rain = 0
KSC1 152152Z 17017KT 36/18 A2977 RMK A01 T03600175  RH  034%=      5-min Rain = 0
KSC1 152153Z 16017KT 36/18 A2977 RMK A01 T03600175  RH  034%=      5-min Rain = 0
KSC1 152154Z 16016KT 36/18 A2977 RMK A01 T03600175  RH  034%=      5-min Rain = 0
KSC1 152155Z 17015G20KT 36/18 A2977 RMK A01 T03600175  RH  034%=      5-min Rain = 0
KSC1 152156Z 17014G19KT 36/18 A2977 RMK A01 T03620175  RH  033%=      5-min Rain = 0
KSC1 152157Z 16018G23KT 36/17 A2977 RMK A01 T03640174  RH  033%=      5-min Rain = 0
KSC1 152158Z 16017G22KT 36/17 A2978 RMK A01 T03640172  RH  032%=      5-min Rain = 0
KSC1 152159Z 16016KT 36/17 A2977 RMK A01 T03640173  RH  033%=      5-min Rain = 0
KSC1 152200Z 16018G23KT 36/17 A2977 RMK A01 T03640173  RH  033%=      5-min Rain = 0
KSC1 152201Z 17014G20KT 36/17 A2977 RMK A01 T03640174  RH  033%=      5-min Rain = 0
KSC1 152202Z 16013G19KT 37/18 A2978 RMK A01 T03650176  RH  033%=      5-min Rain = 0
KSC1 152203Z 16016G21KT 37/17 A2978 RMK A01 T03650174  RH  033%=      5-min Rain = 0
KSC1 152204Z 16014G21KT 36/17 A2978 RMK A01 T03630173  RH  033%=      5-min Rain = 0
KSC1 152205Z 17016KT 36/18 A2978 RMK A01 T03640175  RH  033%=      5-min Rain = 0
KSC1 152206Z 17016KT 36/17 A2978 RMK A01 T03640174  RH  033%=      5-min Rain = 0
KSC1 152207Z 17020G26KT 36/17 A2977 RMK A01 T03620174  RH  033%=      5-min Rain = 0
KSC1 152208Z 17015G20KT 36/17 A2977 RMK A01 T03610174  RH  033%=      5-min Rain = 0
KSC1 152209Z 17014KT 36/18 A2977 RMK A01 T03620175  RH  033%=      5-min Rain = 0
KSC1 152210Z 17015KT 36/17 A2977 RMK A01 T03640174  RH  033%=      5-min Rain = 0
KSC1 152211Z 18013G18KT 36/18 A2977 RMK A01 T03640175  RH  033%=      5-min Rain = 0
KSC1 152212Z 17011KT 37/18 A2977 RMK A01 T03650177  RH  033%=      5-min Rain = 0
KSC1 152213Z 16016G23KT 37/18 A2977 RMK A01 T03650178  RH  033%=      5-min Rain = 0
KSC1 152214Z 17017G22KT 36/18 A2977 RMK A01 T03610176  RH  034%=      5-min Rain = 0
KSC1 152215Z 15012KT 36/18 A2977 RMK A01 T03560178  RH  035%=      5-min Rain = 0
KSC1 152216Z 15013KT 36/18 A2977 RMK A01 T03570180  RH  035%=      5-min Rain = 0
KSC1 152217Z 16017KT 36/18 A2977 RMK A01 T03590181  RH  035%=      5-min Rain = 0
KSC1 152218Z 16016G23KT 36/18 A2977 RMK A01 T03590180  RH  035%=      5-min Rain = 0
KSC1 152219Z 16016KT 36/18 A2977 RMK A01 T03560179  RH  035%=      5-min Rain = 0
KSC1 152220Z 17014KT 35/18 A2977 RMK A01 T03530179  RH  036%=      5-min Rain = 0
KSC1 152221Z 16016KT 35/18 A2977 RMK A01 T03500177  RH  036%=      5-min Rain = 0
KSC1 152222Z 17012KT 35/18 A2977 RMK A01 T03470178  RH  037%=      5-min Rain = 0
KSC1 152223Z 17010KT 35/18 A2977 RMK A01 T03460178  RH  037%=      5-min Rain = 0
KSC1 152224Z 18013G19KT 35/18 A2977 RMK A01 T03450177  RH  037%=      5-min Rain = 0
KSC1 152225Z 17015KT 35/18 A2977 RMK A01 T03450175  RH  037%=      5-min Rain = 0
KSC1 152226Z 18013G20KT 34/18 A2977 RMK A01 T03430175  RH  037%=      5-min Rain = 0
KSC1 152227Z 18014KT 34/17 A2977 RMK A01 T03430174  RH  037%=      5-min Rain = 0
KSC1 152228Z 17015KT 34/18 A2977 RMK A01 T03420175  RH  037%=      5-min Rain = 0
KSC1 152229Z 18013KT 34/18 A2977 RMK A01 T03420176  RH  037%=      5-min Rain = 0
KSC1 152230Z 17014KT 34/18 A2977 RMK A01 T03420176  RH  037%=      5-min Rain = 0
KSC1 152231Z 17015G20KT 34/18 A2977 RMK A01 T03430177  RH  038%=      5-min Rain = 0
KSC1 152232Z 17014G20KT 34/18 A2977 RMK A01 T03430179  RH  038%=      5-min Rain = 0
KSC1 152233Z 17012G17KT 34/18 A2977 RMK A01 T03440181  RH  038%=      5-min Rain = 0
KSC1 152234Z 16015KT 34/18 A2977 RMK A01 T03440181  RH  038%=      5-min Rain = 0
KSC1 152235Z 17016KT 34/18 A2977 RMK A01 T03440182  RH  038%=      5-min Rain = 0
KSC1 152236Z 16015KT 34/18 A2977 RMK A01 T03420181  RH  038%=      5-min Rain = 0
KSC1 152237Z 16011KT 34/18 A2977 RMK A01 T03420181  RH  038%=      5-min Rain = 0
KSC1 152238Z 17014KT 34/18 A2977 RMK A01 T03440180  RH  038%=      5-min Rain = 0
KSC1 152239Z 17016KT 35/18 A2977 RMK A01 T03450180  RH  038%=      5-min Rain = 0
KSC1 152240Z 17016KT 35/18 A2977 RMK A01 T03460180  RH  038%=      5-min Rain = 0
KSC1 152241Z 17014KT 35/18 A2977 RMK A01 T03460182  RH  038%=      5-min Rain = 0
KSC1 152242Z 17014KT 35/18 A2977 RMK A01 T03470182  RH  038%=      5-min Rain = 0
KSC1 152243Z 17014G20KT 35/18 A2977 RMK A01 T03480183  RH  038%=      5-min Rain = 0
KSC1 152244Z 17017G22KT 35/18 A2976 RMK A01 T03490181  RH  037%=      5-min Rain = 0
KSC1 152245Z 17014G19KT 35/18 A2977 RMK A01 T03480182  RH  037%=      5-min Rain = 0
KSC1 152246Z 17013KT 35/18 A2976 RMK A01 T03470183  RH  038%=      5-min Rain = 0
KSC1 152247Z 16016G22KT 35/18 A2976 RMK A01 T03470184  RH  038%=      5-min Rain = 0
KSC1 152248Z 15016KT 35/18 A2976 RMK A01 T03460184  RH  038%=      5-min Rain = 0
KSC1 152249Z 16012KT 35/19 A2976 RMK A01 T03460185  RH  039%=      5-min Rain = 0
KSC1 152250Z 16012KT 35/19 A2976 RMK A01 T03450186  RH  039%=      5-min Rain = 0
KSC1 152251Z 16011G17KT 35/19 A2976 RMK A01 T03450187  RH  039%=      5-min Rain = 0
KSC1 152252Z 16013KT 35/19 A2976 RMK A01 T03450187  RH  039%=      5-min Rain = 0
KSC1 152253Z 16016KT 35/19 A2976 RMK A01 T03450185  RH  039%=      5-min Rain = 0
KSC1 152254Z 17015KT 34/18 A2976 RMK A01 T03440184  RH  039%=      5-min Rain = 0
KSC1 152255Z 16015KT 34/19 A2976 RMK A01 T03440185  RH  039%=      5-min Rain = 0
KSC1 152256Z 16014KT 35/19 A2976 RMK A01 T03450185  RH  039%=      5-min Rain = 0
KSC1 152257Z 17013KT 35/19 A2976 RMK A01 T03460185  RH  039%=      5-min Rain = 0
KSC1 152258Z 16014G19KT 35/19 A2976 RMK A01 T03460186  RH  039%=      5-min Rain = 0
KSC1 152259Z 16015G20KT 34/19 A2976 RMK A01 T03440185  RH  039%=      5-min Rain = 0
KSC1 152300Z 16015G20KT 34/18 A2976 RMK A01 T03430183  RH  039%=      5-min Rain = 0
KSC1 152301Z 16013KT 34/18 A2976 RMK A01 T03440183  RH  039%=      5-min Rain = 0
KSC1 152302Z 17013G18KT 35/18 A2976 RMK A01 T03460182  RH  038%=      5-min Rain = 0
KSC1 152303Z 15012KT 35/18 A2976 RMK A01 T03480183  RH  038%=      5-min Rain = 0
KSC1 152304Z 15010KT 35/19 A2976 RMK A01 T03490186  RH  038%=      5-min Rain = 0
KSC1 152305Z 14015G20KT 35/19 A2975 RMK A01 T03520185  RH  038%=      5-min Rain = 0
KSC1 152306Z 16013G19KT 35/19 A2975 RMK A01 T03500185  RH  038%=      5-min Rain = 0
KSC1 152307Z 16013KT 35/19 A2975 RMK A01 T03500186  RH  038%=      5-min Rain = 0
KSC1 152308Z 16013G20KT 35/19 A2975 RMK A01 T03510186  RH  038%=      5-min Rain = 0
KSC1 152309Z 15016KT 35/18 A2976 RMK A01 T03500184  RH  038%=      5-min Rain = 0
KSC1 152310Z 16015KT 35/18 A2975 RMK A01 T03470184  RH  038%=      5-min Rain = 0
KSC1 152311Z 16011G17KT 35/18 A2976 RMK A01 T03470184  RH  038%=      5-min Rain = 0
KSC1 152312Z 15015KT 35/19 A2975 RMK A01 T03470185  RH  038%=      5-min Rain = 0
KSC1 152313Z 16015KT 35/19 A2975 RMK A01 T03480185  RH  038%=      5-min Rain = 0
KSC1 152314Z 17017KT 35/19 A2975 RMK A01 T03500186  RH  038%=      5-min Rain = 0
KSC1 152315Z 15014G20KT 35/19 A2975 RMK A01 T03500186  RH  038%=      5-min Rain = 0
KSC1 152316Z 16014KT 35/19 A2975 RMK A01 T03500185  RH  038%=      5-min Rain = 0
KSC1 152317Z 17017G23KT 35/18 A2975 RMK A01 T03490184  RH  038%=      5-min Rain = 0
KSC1 152318Z 17016G23KT 35/18 A2975 RMK A01 T03450183  RH  038%=      5-min Rain = 0
KSC1 152319Z 17016KT 34/18 A2975 RMK A01 T03420182  RH  039%=      5-min Rain = 0
KSC1 152320Z 16016KT 34/18 A2975 RMK A01 T03390183  RH  040%=      5-min Rain = 0
KSC1 152321Z 16015G20KT 34/18 A2975 RMK A01 T03380183  RH  040%=      5-min Rain = 0
KSC1 152322Z 17014G21KT 34/18 A2975 RMK A01 T03370184  RH  040%=      5-min Rain = 0
KSC1 152323Z 17017KT 34/18 A2975 RMK A01 T03370184  RH  040%=      5-min Rain = 0
KSC1 152324Z 17014G19KT 34/18 A2975 RMK A01 T03360183  RH  040%=      5-min Rain = 0
KSC1 152325Z 17016KT 34/18 A2975 RMK A01 T03370183  RH  040%=      5-min Rain = 0
KSC1 152326Z 17017G26KT 34/18 A2975 RMK A01 T03370184  RH  040%=      5-min Rain = 0
KSC1 152327Z 16016G25KT 34/18 A2975 RMK A01 T03370184  RH  041%=      5-min Rain = 0
KSC1 152328Z 17018G24KT 34/19 A2975 RMK A01 T03360185  RH  041%=      5-min Rain = 0
KSC1 152329Z 16014G20KT 34/18 A2975 RMK A01 T03350184  RH  041%=      5-min Rain = 0
KSC1 152330Z 15018G23KT 33/18 A2975 RMK A01 T03340184  RH  041%=      5-min Rain = 0
KSC1 152331Z 15018G23KT 33/18 A2975 RMK A01 T03330184  RH  041%=      5-min Rain = 0
KSC1 152332Z 16018KT 33/18 A2975 RMK A01 T03330184  RH  041%=      5-min Rain = 0
KSC1 152333Z 17016KT 33/18 A2975 RMK A01 T03320183  RH  041%=      5-min Rain = 0
KSC1 152334Z 15016G24KT 33/18 A2976 RMK A01 T03320183  RH  041%=      5-min Rain = 0
KSC1 152335Z 15015G21KT 33/18 A2976 RMK A01 T03310183  RH  041%=      5-min Rain = 0
KSC1 152336Z 16015G20KT 33/18 A2975 RMK A01 T03310183  RH  042%=      5-min Rain = 0
KSC1 152337Z 16015KT 33/18 A2975 RMK A01 T03300184  RH  042%=      5-min Rain = 0
KSC1 152338Z 15014KT 33/19 A2975 RMK A01 T03290185  RH  042%=      5-min Rain = 0
KSC1 152339Z 15012KT 33/19 A2975 RMK A01 T03280185  RH  043%=      5-min Rain = 0
KSC1 152340Z 16013KT 33/19 A2975 RMK A01 T03280185  RH  043%=      5-min Rain = 0
KSC1 152341Z 15015KT 33/19 A2975 RMK A01 T03280185  RH  043%=      5-min Rain = 0
KSC1 152342Z 16015KT 33/18 A2975 RMK A01 T03280184  RH  043%=      5-min Rain = 0
KSC1 152343Z 17015KT 33/18 A2975 RMK A01 T03270183  RH  042%=      5-min Rain = 0
KSC1 152344Z 17014KT 33/18 A2975 RMK A01 T03270183  RH  042%=      5-min Rain = 0
KSC1 152345Z 17016G21KT 33/18 A2975 RMK A01 T03260182  RH  042%=      5-min Rain = 0
KSC1 152346Z 16016KT 33/18 A2975 RMK A01 T03260182  RH  042%=      5-min Rain = 0
KSC1 152347Z 16016KT 33/18 A2975 RMK A01 T03250182  RH  043%=      5-min Rain = 0
KSC1 152348Z 16016G22KT 33/18 A2975 RMK A01 T03250182  RH  043%=      5-min Rain = 0
KSC1 152349Z 16016G22KT 33/18 A2975 RMK A01 T03250181  RH  042%=      5-min Rain = 0
KSC1 152350Z 16016G22KT 33/18 A2975 RMK A01 T03250181  RH  042%=      5-min Rain = 0
KSC1 152351Z 16016KT 33/18 A2975 RMK A01 T03250182  RH  043%=      5-min Rain = 0
KSC1 152352Z 16016KT 33/18 A2975 RMK A01 T03250182  RH  043%=      5-min Rain = 0
KSC1 152353Z 17014G19KT 33/18 A2975 RMK A01 T03250182  RH  043%=      5-min Rain = 0
KSC1 152354Z 16010KT 33/18 A2976 RMK A01 T03250183  RH  043%=      5-min Rain = 0
KSC1 152355Z 15013KT 33/18 A2975 RMK A01 T03250184  RH  043%=      5-min Rain = 0
KSC1 152356Z 16014KT 33/18 A2975 RMK A01 T03250184  RH  043%=      5-min Rain = 0
KSC1 152357Z 16017G23KT 33/18 A2975 RMK A01 T03250184  RH  043%=      5-min Rain = 0
KSC1 152358Z 17017KT 33/18 A2975 RMK A01 T03250184  RH  043%=      5-min Rain = 0
KSC1 152359Z 16017KT 32/18 A2975 RMK A01 T03240183  RH  043%=      5-min Rain = 0
KSC1 160000Z 16020G25KT 32/18 A2975 RMK A01 T03240183  RH  043%=      5-min Rain = 0
KSC1 160001Z 16017G24KT 32/18 A2975 RMK A01 T03240183  RH  043%=      5-min Rain = 0
KSC1 160002Z 16018KT 32/18 A2975 RMK A01 T03240183  RH  043%=      5-min Rain = 0
KSC1 160003Z 16017KT 32/18 A2976 RMK A01 T03240183  RH  043%=      5-min Rain = 0
KSC1 160004Z 17016G22KT 32/18 A2976 RMK A01 T03240183  RH  043%=      5-min Rain = 0
KSC1 160005Z 17014KT 32/18 A2976 RMK A01 T03240183  RH  043%=      5-min Rain = 0
KSC1 160006Z 16014G19KT 32/18 A2976 RMK A01 T03240184  RH  043%=      5-min Rain = 0
KSC1 160007Z 17017G22KT 32/18 A2976 RMK A01 T03240183  RH  043%=      5-min Rain = 0
KSC1 160008Z 16014G21KT 32/18 A2976 RMK A01 T03240183  RH  043%=      5-min Rain = 0
KSC1 160009Z 16018KT 32/18 A2976 RMK A01 T03230183  RH  043%=      5-min Rain = 0
KSC1 160010Z 17017G23KT 32/18 A2976 RMK A01 T03230183  RH  043%=      5-min Rain = 0
KSC1 160011Z 16016KT 32/18 A2976 RMK A01 T03220183  RH  044%=      5-min Rain = 0
KSC1 160012Z 17017KT 32/18 A2976 RMK A01 T03220184  RH  044%=      5-min Rain = 0
KSC1 160013Z 17017G23KT 32/18 A2976 RMK A01 T03220184  RH  044%=      5-min Rain = 0
KSC1 160014Z 17014G19KT 32/18 A2976 RMK A01 T03210184  RH  044%=      5-min Rain = 0
KSC1 160015Z 18017G24KT 32/18 A2977 RMK A01 T03210184  RH  044%=      5-min Rain = 0
KSC1 160016Z 18018G23KT 32/18 A2977 RMK A01 T03210184  RH  044%=      5-min Rain = 0
KSC1 160017Z 17019G24KT 32/18 A2977 RMK A01 T03210184  RH  044%=      5-min Rain = 0
KSC1 160018Z 18016G23KT 32/18 A2977 RMK A01 T03200183  RH  044%=      5-min Rain = 0
KSC1 160019Z 18016G21KT 32/18 A2977 RMK A01 T03200184  RH  044%=      5-min Rain = 0
KSC1 160020Z 17016KT 32/18 A2977 RMK A01 T03200184  RH  045%=      5-min Rain = 0
KSC1 160021Z 17014KT 32/18 A2977 RMK A01 T03200184  RH  045%=      5-min Rain = 0
KSC1 160022Z 17014KT 32/18 A2977 RMK A01 T03190184  RH  045%=      5-min Rain = 0
KSC1 160023Z 17014KT 32/18 A2977 RMK A01 T03190184  RH  045%=      5-min Rain = 0
KSC1 160024Z 18013G18KT 32/18 A2977 RMK A01 T03180184  RH  045%=      5-min Rain = 0
KSC1 160025Z 18017G23KT 32/18 A2977 RMK A01 T03180184  RH  045%=      5-min Rain = 0
KSC1 160026Z 18015KT 32/18 A2977 RMK A01 T03180184  RH  045%=      5-min Rain = 0
KSC1 160027Z 17013KT 32/19 A2977 RMK A01 T03180185  RH  045%=      5-min Rain = 0
KSC1 160028Z 17016G21KT 32/19 A2977 RMK A01 T03180185  RH  045%=      5-min Rain = 0
KSC1 160029Z 18019G24KT 32/19 A2977 RMK A01 T03170185  RH  045%=      5-min Rain = 0
KSC1 160030Z 18017G24KT 32/18 A2977 RMK A01 T03170183  RH  045%=      5-min Rain = 0
KSC1 160031Z 18019KT 32/18 A2977 RMK A01 T03160184  RH  045%=      5-min Rain = 0
KSC1 160032Z 19017G22KT 32/18 A2977 RMK A01 T03150184  RH  046%=      5-min Rain = 0
KSC1 160033Z 18021G27KT 32/18 A2978 RMK A01 T03150184  RH  046%=      5-min Rain = 0
KSC1 160034Z 18017G22KT 31/18 A2978 RMK A01 T03140184  RH  046%=      5-min Rain = 0
KSC1 160035Z 18018G23KT 31/18 A2978 RMK A01 T03140184  RH  046%=      5-min Rain = 0
KSC1 160036Z 18021G26KT 31/18 A2978 RMK A01 T03130184  RH  046%=      5-min Rain = 0
KSC1 160037Z 18021G26KT 31/18 A2979 RMK A01 T03130184  RH  046%=      5-min Rain = 0
KSC1 160038Z 18019KT 31/18 A2979 RMK A01 T03130184  RH  046%=      5-min Rain = 0
KSC1 160039Z 18018KT 31/18 A2979 RMK A01 T03130184  RH  046%=      5-min Rain = 0
KSC1 160040Z 19019KT 31/18 A2979 RMK A01 T03120184  RH  047%=      5-min Rain = 0
KSC1 160041Z 19017KT 31/19 A2978 RMK A01 T03120185  RH  047%=      5-min Rain = 0
KSC1 160042Z 18016KT 31/19 A2978 RMK A01 T03120185  RH  047%=      5-min Rain = 0
KSC1 160043Z 17017G24KT 31/19 A2978 RMK A01 T03110185  RH  047%=      5-min Rain = 0
KSC1 160044Z 18020G26KT 31/19 A2978 RMK A01 T03110185  RH  047%=      5-min Rain = 0
KSC1 160045Z 19019KT 31/19 A2978 RMK A01 T03100185  RH  047%=      5-min Rain = 0
KSC1 160046Z 18018KT 31/18 A2978 RMK A01 T03100184  RH  047%=      5-min Rain = 0
KSC1 160047Z 18016G22KT 31/19 A2979 RMK A01 T03100185  RH  047%=      5-min Rain = 0
KSC1 160048Z 18018G26KT 31/19 A2979 RMK A01 T03090185  RH  047%=      5-min Rain = 0
KSC1 160049Z 18016KT 31/19 A2979 RMK A01 T03090185  RH  048%=      5-min Rain = 0
KSC1 160050Z 18018G23KT 31/19 A2979 RMK A01 T03090185  RH  048%=      5-min Rain = 0
KSC1 160051Z 18017KT 31/19 A2979 RMK A01 T03090185  RH  048%=      5-min Rain = 0
KSC1 160052Z 18018KT 31/19 A2979 RMK A01 T03090185  RH  048%=      5-min Rain = 0
KSC1 160053Z 18014KT 31/19 A2979 RMK A01 T03080186  RH  048%=      5-min Rain = 0
KSC1 160054Z 18016KT 31/19 A2978 RMK A01 T03080186  RH  048%=      5-min Rain = 0
KSC1 160055Z 17015KT 31/19 A2978 RMK A01 T03070186  RH  048%=      5-min Rain = 0
KSC1 160056Z 18016KT 31/19 A2978 RMK A01 T03070186  RH  049%=      5-min Rain = 0
KSC1 160057Z 17017G24KT 31/19 A2978 RMK A01 T03060186  RH  049%=      5-min Rain = 0
KSC1 160058Z 18022G27KT 31/19 A2978 RMK A01 T03050186  RH  049%=      5-min Rain = 0
KSC1 160059Z 18019G25KT 30/19 A2978 RMK A01 T03040185  RH  049%=      5-min Rain = 0
KSC1 160100Z 18017G22KT 30/19 A2978 RMK A01 T03030185  RH  049%=      5-min Rain = 0
KSC1 160101Z 18017KT 30/19 A2978 RMK A01 T03030185  RH  049%=      5-min Rain = 0
KSC1 160102Z 18017KT 30/19 A2978 RMK A01 T03030185  RH  049%=      5-min Rain = 0
KSC1 160103Z 18016KT 30/19 A2978 RMK A01 T03030185  RH  049%=      5-min Rain = 0
KSC1 160104Z 17019KT 30/19 A2978 RMK A01 T03030185  RH  049%=      5-min Rain = 0
KSC1 160105Z 17019G24KT 30/19 A2978 RMK A01 T03020185  RH  050%=      5-min Rain = 0
KSC1 160106Z 17016KT 30/19 A2978 RMK A01 T03010186  RH  050%=      5-min Rain = 0
KSC1 160107Z 18017G24KT 30/19 A2978 RMK A01 T03000187  RH  051%=      5-min Rain = 0
KSC1 160108Z 17019G27KT 30/19 A2978 RMK A01 T03000187  RH  051%=      5-min Rain = 0
KSC1 160109Z 18020G26KT 30/19 A2978 RMK A01 T02990186  RH  051%=      5-min Rain = 0
KSC1 160110Z 18016G24KT 30/19 A2977 RMK A01 T02990185  RH  050%=      5-min Rain = 0
KSC1 160111Z 18019KT 30/19 A2977 RMK A01 T03000185  RH  050%=      5-min Rain = 0
KSC1 160112Z 17019G24KT 30/19 A2977 RMK A01 T03000186  RH  050%=      5-min Rain = 0
KSC1 160113Z 17019KT 30/19 A2977 RMK A01 T03000186  RH  051%=      5-min Rain = 0
KSC1 160114Z 17020KT 30/19 A2977 RMK A01 T02990190  RH  052%=      5-min Rain = 0
KSC1 160115Z 17017G25KT 29/20 A2977 RMK A01 T02920197  RH  056%=      5-min Rain = 0
KSC1 160116Z 18019G26KT 28/20 A2977 RMK A01 T02810198  RH  061%=      5-min Rain = 0
KSC1 160117Z 18020KT 27/20 A2977 RMK A01 T02720200  RH  065%=      5-min Rain = 0.02
KSC1 160118Z 17020G25KT 27/20 A2977 RMK A01 T02660200  RH  067%=      5-min Rain = 0.02
KSC1 160119Z 17018G23KT 26/20 A2978 RMK A01 T02610202  RH  070%=      5-min Rain = 0
KSC1 160120Z 17018G24KT 26/20 A2978 RMK A01 T02600202  RH  070%=      5-min Rain = 0
KSC1 160121Z 17017KT 26/20 A2978 RMK A01 T02600202  RH  070%=      5-min Rain = 0.01
KSC1 160122Z 18018G23KT 26/20 A2978 RMK A01 T02600203  RH  071%=      5-min Rain = 0
KSC1 160123Z 17017G23KT 26/20 A2978 RMK A01 T02600202  RH  070%=      5-min Rain = 0
KSC1 160124Z 17018G24KT 26/20 A2977 RMK A01 T02600202  RH  070%=      5-min Rain = 0
KSC1 160125Z 17017G23KT 26/20 A2977 RMK A01 T02600203  RH  071%=      5-min Rain = 0
KSC1 160126Z 17019G25KT 26/20 A2977 RMK A01 T02580199  RH  070%=      5-min Rain = 0
KSC1 160127Z 17018G24KT 26/20 A2977 RMK A01 T02580201  RH  071%=      5-min Rain = 0
KSC1 160128Z 17020KT 26/20 A2977 RMK A01 T02570199  RH  070%=      5-min Rain = 0.01
KSC1 160129Z 16022KT 26/18 A2977 RMK A01 T02560182  RH  064%=      5-min Rain = 0
KSC1 160130Z 16024G29KT 26/17 A2978 RMK A01 T02550173  RH  060%=      5-min Rain = 0.01
KSC1 160131Z 16019G24KT 25/17 A2978 RMK A01 T02530168  RH  059%=      5-min Rain = 0.01
KSC1 160132Z 16019KT 25/17 A2978 RMK A01 T02510169  RH  060%=      5-min Rain = 0
KSC1 160133Z 15016G21KT 25/17 A2978 RMK A01 T02510172  RH  061%=      5-min Rain = 0
KSC1 160134Z 16016KT 25/18 A2979 RMK A01 T02500175  RH  063%=      5-min Rain = 0
KSC1 160135Z 16015KT 25/18 A2979 RMK A01 T02500177  RH  064%=      5-min Rain = 0
KSC1 160136Z 16015KT 25/18 A2979 RMK A01 T02520179  RH  064%=      5-min Rain = 0
KSC1 160137Z 15013G18KT 26/18 A298 RMK A01 T02560183  RH  064%=      5-min Rain = 0
KSC1 160138Z 16010KT 26/19 A298 RMK A01 T02570185  RH  064%=      5-min Rain = 0
KSC1 160139Z 18010KT 26/19 A298 RMK A01 T02580187  RH  065%=      5-min Rain = 0
KSC1 160140Z 18011KT 26/19 A2981 RMK A01 T02580187  RH  065%=      5-min Rain = 0
KSC1 160141Z 18012KT 26/18 A2981 RMK A01 T02600183  RH  063%=      5-min Rain = 0
KSC1 160142Z 18010KT 26/18 A2981 RMK A01 T02630183  RH  061%=      5-min Rain = 0
KSC1 160143Z 18011KT 27/18 A2982 RMK A01 T02660179  RH  059%=      5-min Rain = 0
KSC1 160144Z 19010KT 27/18 A2982 RMK A01 T02700179  RH  058%=      5-min Rain = 0
KSC1 160145Z 20008KT 27/18 A2983 RMK A01 T02720180  RH  057%=      5-min Rain = 0
KSC1 160146Z 21008KT 27/18 A2983 RMK A01 T02720180  RH  057%=      5-min Rain = 0
KSC1 160147Z 23007KT 27/18 A2983 RMK A01 T02720182  RH  058%=      5-min Rain = 0
KSC1 160148Z 23006KT 27/19 A2983 RMK A01 T02700189  RH  061%=      5-min Rain = 0
KSC1 160149Z 21006KT 27/19 A2983 RMK A01 T02670192  RH  063%=      5-min Rain = 0
KSC1 160150Z 18006KT 27/19 A2983 RMK A01 T02650194  RH  065%=      5-min Rain = 0.01
KSC1 160151Z 15006KT 26/20 A2982 RMK A01 T02630197  RH  067%=      5-min Rain = 0.01
KSC1 160152Z 12007G13KT 26/20 A2982 RMK A01 T02600198  RH  069%=      5-min Rain = 0
KSC1 160153Z 15013KT 26/19 A2981 RMK A01 T02560185  RH  065%=      5-min Rain = 0.01
KSC1 160154Z 16011KT 25/17 A2981 RMK A01 T02540168  RH  059%=      5-min Rain = 0.01
KSC1 160155Z 15009KT 25/16 A2981 RMK A01 T02500163  RH  059%=      5-min Rain = 0.02
KSC1 160156Z 15010KT 25/16 A2981 RMK A01 T02450162  RH  060%=      5-min Rain = 0
KSC1 160157Z 16013KT 24/16 A2981 RMK A01 T02410161  RH  061%=      5-min Rain = 0.01
KSC1 160158Z 16015G22KT 24/15 A2981 RMK A01 T02390151  RH  058%=      5-min Rain = 0
KSC1 160159Z 16012G21KT 24/15 A2981 RMK A01 T02430146  RH  055%=      5-min Rain = 0.01
KSC1 160200Z 14011G17KT 25/15 A298 RMK A01 T02480145  RH  053%=      5-min Rain = 0
KSC1 160201Z 11009KT 25/15 A298 RMK A01 T02500154  RH  055%=      5-min Rain = 0.01
KSC1 160202Z 14007KT 25/14 A298 RMK A01 T02480144  RH  052%=      5-min Rain = 0
KSC1 160203Z 13011KT 25/13 A298 RMK A01 T02490133  RH  049%=      5-min Rain = 0
KSC1 160204Z 13012G17KT 25/14 A2979 RMK A01 T02520135  RH  048%=      5-min Rain = 0
KSC1 160205Z 13010KT 25/15 A2979 RMK A01 T02500145  RH  052%=      5-min Rain = 0
KSC1 160206Z 14011KT 24/14 A2979 RMK A01 T02440141  RH  053%=      5-min Rain = 0
KSC1 160207Z 14009KT 24/14 A2979 RMK A01 T02440142  RH  053%=      5-min Rain = 0
KSC1 160208Z 15008KT 25/15 A298 RMK A01 T02450146  RH  054%=      5-min Rain = 0.01
KSC1 160209Z 15009KT 24/15 A298 RMK A01 T02440150  RH  056%=      5-min Rain = 0
KSC1 160210Z 14007KT 24/15 A298 RMK A01 T02410153  RH  058%=      5-min Rain = 0
KSC1 160211Z 14008KT 24/16 A298 RMK A01 T02390155  RH  059%=      5-min Rain = 0
KSC1 160212Z 14008KT 24/16 A298 RMK A01 T02370158  RH  061%=      5-min Rain = 0
KSC1 160213Z 13008KT 24/16 A298 RMK A01 T02350161  RH  063%=      5-min Rain = 0
KSC1 160214Z 13009KT 24/16 A298 RMK A01 T02350161  RH  063%=      5-min Rain = 0
KSC1 160215Z 12009KT 24/17 A298 RMK A01 T02360165  RH  064%=      5-min Rain = 0
KSC1 160216Z 12010KT 24/17 A298 RMK A01 T02360169  RH  066%=      5-min Rain = 0
KSC1 160217Z 12011KT 24/17 A298 RMK A01 T02350170  RH  067%=      5-min Rain = 0
KSC1 160218Z 12011KT 24/17 A298 RMK A01 T02350170  RH  067%=      5-min Rain = 0
KSC1 160219Z 12010KT 24/17 A298 RMK A01 T02360167  RH  065%=      5-min Rain = 0
KSC1 160220Z 12009KT 24/17 A298 RMK A01 T02370166  RH  065%=      5-min Rain = 0
KSC1 160221Z 13010KT 24/16 A298 RMK A01 T02370159  RH  062%=      5-min Rain = 0
KSC1 160222Z 13009KT 24/16 A298 RMK A01 T02390157  RH  060%=      5-min Rain = 0
KSC1 160223Z 14009KT 24/16 A298 RMK A01 T02420156  RH  059%=      5-min Rain = 0
KSC1 160224Z 14008KT 24/16 A298 RMK A01 T02430158  RH  059%=      5-min Rain = 0
KSC1 160225Z 13010KT 24/15 A298 RMK A01 T02420152  RH  057%=      5-min Rain = 0
KSC1 160226Z 14010KT 24/15 A298 RMK A01 T02430146  RH  055%=      5-min Rain = 0
KSC1 160227Z 15011KT 25/14 A298 RMK A01 T02450137  RH  051%=      5-min Rain = 0
KSC1 160228Z 14009KT 25/13 A298 RMK A01 T02480131  RH  048%=      5-min Rain = 0
KSC1 160229Z 14009KT 25/13 A298 RMK A01 T02510131  RH  047%=      5-min Rain = 0
KSC1 160230Z 14008KT 25/13 A298 RMK A01 T02510127  RH  046%=      5-min Rain = 0
KSC1 160231Z 14008KT 25/13 A298 RMK A01 T02520129  RH  047%=      5-min Rain = 0
KSC1 160232Z 13009KT 25/13 A298 RMK A01 T02510128  RH  046%=      5-min Rain = 0
KSC1 160233Z 14010KT 25/12 A298 RMK A01 T02510123  RH  045%=      5-min Rain = 0
KSC1 160234Z 14010KT 25/12 A298 RMK A01 T02540118  RH  043%=      5-min Rain = 0
KSC1 160235Z 15008KT 26/12 A298 RMK A01 T02580118  RH  042%=      5-min Rain = 0
KSC1 160236Z 14008KT 26/12 A298 RMK A01 T02590119  RH  042%=      5-min Rain = 0
KSC1 160237Z 15010KT 26/12 A298 RMK A01 T02600120  RH  042%=      5-min Rain = 0
KSC1 160238Z 15010KT 26/12 A2979 RMK A01 T02590116  RH  041%=      5-min Rain = 0
KSC1 160239Z 14010KT 26/12 A2979 RMK A01 T02610117  RH  041%=      5-min Rain = 0
KSC1 160240Z 15008KT 26/12 A2979 RMK A01 T02610118  RH  041%=      5-min Rain = 0
KSC1 160241Z 15009KT 26/12 A2979 RMK A01 T02610118  RH  041%=      5-min Rain = 0
KSC1 160242Z 14009KT 26/12 A2979 RMK A01 T02610117  RH  041%=      5-min Rain = 0
KSC1 160243Z 15009KT 26/12 A2979 RMK A01 T02610115  RH  040%=      5-min Rain = 0
KSC1 160244Z 14009KT 26/12 A2979 RMK A01 T02620115  RH  040%=      5-min Rain = 0
KSC1 160245Z 15009KT 26/11 A2979 RMK A01 T02620114  RH  040%=      5-min Rain = 0
KSC1 160246Z 15009KT 26/12 A298 RMK A01 T02630115  RH  040%=      5-min Rain = 0
KSC1 160247Z 16007KT 26/12 A298 RMK A01 T02630117  RH  040%=      5-min Rain = 0
KSC1 160248Z 15009KT 26/12 A298 RMK A01 T02630115  RH  040%=      5-min Rain = 0
KSC1 160249Z 15008KT 26/12 A298 RMK A01 T02630116  RH  040%=      5-min Rain = 0
KSC1 160250Z 15008KT 26/12 A298 RMK A01 T02630115  RH  040%=      5-min Rain = 0
KSC1 160251Z 15009KT 26/12 A298 RMK A01 T02640117  RH  040%=      5-min Rain = 0
KSC1 160252Z 15010KT 26/12 A298 RMK A01 T02640116  RH  040%=      5-min Rain = 0
KSC1 160253Z 14010KT 26/11 A298 RMK A01 T02640114  RH  039%=      5-min Rain = 0
KSC1 160254Z 14010KT 27/11 A298 RMK A01 T02650112  RH  038%=      5-min Rain = 0
KSC1 160255Z 14009KT 27/11 A298 RMK A01 T02680114  RH  038%=      5-min Rain = 0
KSC1 160256Z 15009KT 27/11 A298 RMK A01 T02680112  RH  038%=      5-min Rain = 0
KSC1 160257Z 15008KT 27/11 A298 RMK A01 T02690112  RH  038%=      5-min Rain = 0
KSC1 160258Z 15007KT 27/11 A298 RMK A01 T02690113  RH  038%=      5-min Rain = 0
KSC1 160259Z 16008KT 27/11 A298 RMK A01 T02690111  RH  037%=      5-min Rain = 0
KSC1 160300Z 16007KT 27/11 A298 RMK A01 T02690112  RH  038%=      5-min Rain = 0
KSC1 160301Z 16009KT 27/11 A298 RMK A01 T02680110  RH  037%=      5-min Rain = 0
KSC1 160302Z 16008KT 27/11 A298 RMK A01 T02680112  RH  038%=      5-min Rain = 0
KSC1 160303Z 16009KT 27/11 A298 RMK A01 T02670110  RH  038%=      5-min Rain = 0
KSC1 160304Z 16008KT 27/11 A298 RMK A01 T02670110  RH  038%=      5-min Rain = 0
KSC1 160305Z 16008KT 27/11 A298 RMK A01 T02660110  RH  038%=      5-min Rain = 0
KSC1 160306Z 16008KT 27/11 A298 RMK A01 T02660110  RH  038%=      5-min Rain = 0
KSC1 160307Z 16009KT 27/11 A298 RMK A01 T02650106  RH  037%=      5-min Rain = 0
KSC1 160308Z 16009KT 27/11 A298 RMK A01 T02660106  RH  037%=      5-min Rain = 0
KSC1 160309Z 16010KT 27/10 A298 RMK A01 T02670104  RH  036%=      5-min Rain = 0
KSC1 160310Z 16009KT 27/10 A2981 RMK A01 T02680100  RH  035%=      5-min Rain = 0
KSC1 160311Z 17008KT 27/10 A2981 RMK A01 T02690102  RH  035%=      5-min Rain = 0
KSC1 160312Z 17008KT 27/10 A2981 RMK A01 T02690103  RH  035%=      5-min Rain = 0
KSC1 160313Z 16009KT 27/10 A2981 RMK A01 T02690099  RH  034%=      5-min Rain = 0
KSC1 160314Z 17009KT 27/10 A2981 RMK A01 T02700098  RH  034%=      5-min Rain = 0
KSC1 160315Z 16010KT 27/10 A2981 RMK A01 T02710097  RH  034%=      5-min Rain = 0
KSC1 160316Z 17008KT 27/10 A2981 RMK A01 T02710098  RH  034%=      5-min Rain = 0
KSC1 160317Z 17008KT 27/10 A2981 RMK A01 T02710097  RH  034%=      5-min Rain = 0
KSC1 160318Z 17007KT 27/10 A2981 RMK A01 T02710097  RH  034%=      5-min Rain = 0
KSC1 160319Z 16009KT 27/10 A2981 RMK A01 T02710097  RH  033%=      5-min Rain = 0
KSC1 160320Z 17009KT 27/10 A2981 RMK A01 T02710095  RH  033%=      5-min Rain = 0
KSC1 160321Z 17008KT 27/10 A2981 RMK A01 T02720097  RH  033%=      5-min Rain = 0
KSC1 160322Z 17008KT 27/10 A2981 RMK A01 T02710099  RH  034%=      5-min Rain = 0
KSC1 160323Z 17009KT 27/10 A2981 RMK A01 T02700098  RH  034%=      5-min Rain = 0
KSC1 160324Z 17008KT 27/10 A2981 RMK A01 T02700099  RH  034%=      5-min Rain = 0
KSC1 160325Z 17008KT 27/10 A2981 RMK A01 T02690102  RH  035%=      5-min Rain = 0
KSC1 160326Z 17009KT 27/10 A2981 RMK A01 T02660101  RH  035%=      5-min Rain = 0
KSC1 160327Z 17009KT 27/10 A2981 RMK A01 T02660101  RH  035%=      5-min Rain = 0
KSC1 160328Z 17009KT 27/10 A2981 RMK A01 T02650099  RH  035%=      5-min Rain = 0
KSC1 160329Z 17008KT 27/10 A2981 RMK A01 T02650099  RH  035%=      5-min Rain = 0
KSC1 160330Z 17009KT 27/10 A2981 RMK A01 T02650100  RH  035%=      5-min Rain = 0
KSC1 160331Z 17008KT 27/10 A2982 RMK A01 T02650100  RH  035%=      5-min Rain = 0
KSC1 160332Z 17009KT 26/10 A2982 RMK A01 T02640099  RH  035%=      5-min Rain = 0
KSC1 160333Z 17009KT 26/10 A2982 RMK A01 T02640100  RH  036%=      5-min Rain = 0
KSC1 160334Z 17010KT 26/10 A2982 RMK A01 T02640097  RH  035%=      5-min Rain = 0
KSC1 160335Z 17010KT 27/10 A2982 RMK A01 T02650097  RH  035%=      5-min Rain = 0
KSC1 160336Z 16009KT 27/10 A2982 RMK A01 T02650097  RH  035%=      5-min Rain = 0
KSC1 160337Z 17008KT 27/10 A2982 RMK A01 T02650096  RH  035%=      5-min Rain = 0
KSC1 160338Z 16009KT 27/10 A2982 RMK A01 T02650096  RH  035%=      5-min Rain = 0
KSC1 160339Z 16010KT 27/10 A2982 RMK A01 T02660097  RH  035%=      5-min Rain = 0
KSC1 160340Z 16009KT 27/10 A2982 RMK A01 T02650096  RH  035%=      5-min Rain = 0
KSC1 160341Z 17008KT 27/10 A2982 RMK A01 T02660098  RH  035%=      5-min Rain = 0
KSC1 160342Z 17008KT 27/10 A2982 RMK A01 T02650099  RH  035%=      5-min Rain = 0
KSC1 160343Z 16009KT 26/10 A2982 RMK A01 T02640098  RH  035%=      5-min Rain = 0
KSC1 160344Z 17008KT 26/10 A2982 RMK A01 T02630100  RH  036%=      5-min Rain = 0
KSC1 160345Z 17008KT 26/10 A2982 RMK A01 T02620099  RH  036%=      5-min Rain = 0
KSC1 160346Z 17009KT 26/10 A2982 RMK A01 T02610099  RH  036%=      5-min Rain = 0
KSC1 160347Z 17009KT 26/10 A2982 RMK A01 T02610099  RH  036%=      5-min Rain = 0
KSC1 160348Z 17012KT 26/10 A2982 RMK A01 T02620100  RH  036%=      5-min Rain = 0
KSC1 160349Z 17009KT 26/10 A2982 RMK A01 T02640101  RH  036%=      5-min Rain = 0
KSC1 160350Z 17010KT 27/10 A2982 RMK A01 T02660104  RH  036%=      5-min Rain = 0
KSC1 160351Z 17009KT 27/11 A2982 RMK A01 T02670105  RH  036%=      5-min Rain = 0
KSC1 160352Z 17010KT 27/11 A2982 RMK A01 T02670107  RH  037%=      5-min Rain = 0
KSC1 160353Z 17009KT 27/11 A2982 RMK A01 T02660110  RH  038%=      5-min Rain = 0
KSC1 160354Z 16009KT 27/11 A2982 RMK A01 T02650111  RH  038%=      5-min Rain = 0
KSC1 160355Z 16010G15KT 26/11 A2982 RMK A01 T02640112  RH  039%=      5-min Rain = 0
KSC1 160356Z 17010KT 26/11 A2982 RMK A01 T02630113  RH  039%=      5-min Rain = 0
KSC1 160357Z 16010KT 26/11 A2982 RMK A01 T02640114  RH  039%=      5-min Rain = 0
KSC1 160358Z 17009KT 26/11 A2982 RMK A01 T02630114  RH  039%=      5-min Rain = 0
KSC1 160359Z 17009KT 26/12 A2982 RMK A01 T02620115  RH  040%=      5-min Rain = 0
KSC1 160400Z 17009KT 26/12 A2982 RMK A01 T02620116  RH  040%=      5-min Rain = 0
KSC1 160401Z 17009KT 26/12 A2982 RMK A01 T02610117  RH  041%=      5-min Rain = 0
KSC1 160402Z 17009KT 26/12 A2982 RMK A01 T02610119  RH  041%=      5-min Rain = 0
KSC1 160403Z 17010KT 26/12 A2982 RMK A01 T02610120  RH  041%=      5-min Rain = 0
KSC1 160404Z 17009KT 26/12 A2982 RMK A01 T02610120  RH  042%=      5-min Rain = 0
KSC1 160405Z 16009KT 26/12 A2982 RMK A01 T02610122  RH  042%=      5-min Rain = 0
KSC1 160406Z 16008KT 26/12 A2982 RMK A01 T02610123  RH  042%=      5-min Rain = 0
KSC1 160407Z 17009KT 26/12 A2982 RMK A01 T02600123  RH  043%=      5-min Rain = 0
KSC1 160408Z 16009KT 26/12 A2982 RMK A01 T02590123  RH  043%=      5-min Rain = 0
KSC1 160409Z 16009KT 26/12 A2982 RMK A01 T02590123  RH  043%=      5-min Rain = 0
KSC1 160410Z 17009KT 26/12 A2982 RMK A01 T02590124  RH  043%=      5-min Rain = 0
KSC1 160411Z 17007KT 26/13 A2982 RMK A01 T02590125  RH  043%=      5-min Rain = 0
KSC1 160412Z 17008KT 26/12 A2982 RMK A01 T02580124  RH  043%=      5-min Rain = 0
KSC1 160413Z 17008KT 26/13 A2982 RMK A01 T02580125  RH  044%=      5-min Rain = 0
KSC1 160414Z 16007KT 26/13 A2982 RMK A01 T02570125  RH  044%=      5-min Rain = 0
KSC1 160415Z 17007KT 26/13 A2982 RMK A01 T02570125  RH  044%=      5-min Rain = 0
KSC1 160416Z 17006KT 26/13 A2982 RMK A01 T02560125  RH  044%=      5-min Rain = 0
KSC1 160417Z 17007KT 26/13 A2982 RMK A01 T02560125  RH  044%=      5-min Rain = 0
KSC1 160418Z 16007KT 25/13 A2982 RMK A01 T02540125  RH  045%=      5-min Rain = 0
KSC1 160419Z 17008KT 25/13 A2982 RMK A01 T02540125  RH  045%=      5-min Rain = 0
KSC1 160420Z 17007KT 25/13 A2982 RMK A01 T02530125  RH  045%=      5-min Rain = 0
KSC1 160421Z 16008KT 25/13 A2982 RMK A01 T02520126  RH  045%=      5-min Rain = 0
KSC1 160422Z 16008KT 25/13 A2982 RMK A01 T02520126  RH  046%=      5-min Rain = 0
KSC1 160423Z 17008KT 25/13 A2982 RMK A01 T02510126  RH  046%=      5-min Rain = 0
KSC1 160424Z 17008KT 25/13 A2982 RMK A01 T02510127  RH  046%=      5-min Rain = 0
KSC1 160425Z 17008KT 25/13 A2982 RMK A01 T02500127  RH  046%=      5-min Rain = 0
KSC1 160426Z 16009KT 25/13 A2982 RMK A01 T02490127  RH  046%=      5-min Rain = 0
KSC1 160427Z 17009KT 25/13 A2982 RMK A01 T02490126  RH  046%=      5-min Rain = 0
KSC1 160428Z 17008KT 25/13 A2982 RMK A01 T02500127  RH  046%=      5-min Rain = 0
KSC1 160429Z 17008KT 25/13 A2982 RMK A01 T02500127  RH  046%=      5-min Rain = 0
KSC1 160430Z 18007KT 25/13 A2982 RMK A01 T02500127  RH  047%=      5-min Rain = 0
KSC1 160431Z 18008KT 25/13 A2982 RMK A01 T02500127  RH  046%=      5-min Rain = 0
KSC1 160432Z 18008KT 25/13 A2982 RMK A01 T02500127  RH  046%=      5-min Rain = 0
KSC1 160433Z 18008KT 25/13 A2982 RMK A01 T02510127  RH  046%=      5-min Rain = 0
KSC1 160434Z 18007KT 25/13 A2982 RMK A01 T02520128  RH  046%=      5-min Rain = 0
KSC1 160435Z 18007KT 25/13 A2982 RMK A01 T02530128  RH  046%=      5-min Rain = 0
KSC1 160436Z 17007KT 25/13 A2982 RMK A01 T02540128  RH  045%=      5-min Rain = 0
KSC1 160437Z 18008KT 26/13 A2982 RMK A01 T02550128  RH  045%=      5-min Rain = 0
KSC1 160438Z 18009KT 26/13 A2982 RMK A01 T02560128  RH  045%=      5-min Rain = 0
KSC1 160439Z 18008KT 26/13 A2982 RMK A01 T02580128  RH  045%=      5-min Rain = 0
KSC1 160440Z 18008KT 26/13 A2982 RMK A01 T02580129  RH  045%=      5-min Rain = 0
KSC1 160441Z 18008KT 26/13 A2982 RMK A01 T02580128  RH  045%=      5-min Rain = 0
KSC1 160442Z 18009G14KT 26/13 A2982 RMK A01 T02580129  RH  045%=      5-min Rain = 0
KSC1 160443Z 19009KT 26/13 A2982 RMK A01 T02580130  RH  045%=      5-min Rain = 0
KSC1 160444Z 18008KT 26/13 A2982 RMK A01 T02590130  RH  045%=      5-min Rain = 0
KSC1 160445Z 19006KT 26/13 A2982 RMK A01 T02600131  RH  045%=      5-min Rain = 0
KSC1 160446Z 19004KT 26/13 A2982 RMK A01 T02600130  RH  045%=      5-min Rain = 0
KSC1 160447Z 19004KT 26/13 A2982 RMK A01 T02590130  RH  045%=      5-min Rain = 0
KSC1 160448Z 22002KT 26/13 A2983 RMK A01 T02580131  RH  045%=      5-min Rain = 0
KSC1 160449Z 21003KT 26/13 A2983 RMK A01 T02560131  RH  046%=      5-min Rain = 0
KSC1 160450Z 19003KT 26/13 A2983 RMK A01 T02550132  RH  046%=      5-min Rain = 0
KSC1 160451Z 33001KT 25/13 A2983 RMK A01 T02540132  RH  047%=      5-min Rain = 0
KSC1 160452Z 00004KT 25/13 A2983 RMK A01 T02510132  RH  048%=      5-min Rain = 0
KSC1 160453Z 01006KT 25/13 A2983 RMK A01 T02450133  RH  050%=      5-min Rain = 0
KSC1 160454Z 00005KT 24/13 A2983 RMK A01 T02390132  RH  051%=      5-min Rain = 0
KSC1 160455Z 01005KT 24/13 A2983 RMK A01 T02350133  RH  053%=      5-min Rain = 0
KSC1 160456Z 02006KT 23/13 A2983 RMK A01 T02330131  RH  053%=      5-min Rain = 0
KSC1 160457Z 04005KT 23/13 A2983 RMK A01 T02310130  RH  053%=      5-min Rain = 0
KSC1 160458Z 04005KT 23/13 A2983 RMK A01 T02310131  RH  053%=      5-min Rain = 0
KSC1 160459Z 04006KT 23/13 A2983 RMK A01 T02310133  RH  054%=      5-min Rain = 0

Page generated in 0.1425 seconds.